Time,TemperatureF,DewpointF,PressureIn,WindDirection,WindDirectionDegrees,WindSpeedMPH,WindSpeedGustMPH,Humidity,HourlyPrecipIn,Conditions,Clouds,dailyrainin,SoftwareType,DateUTC
2013-04-24 00:01:00,68.8,62.4,29.68,SSE,167,1.0,4.0,80,0.00,,,0.00,Wunderground v.1.15,2013-04-24 05:01:00,
2013-04-24 00:02:00,68.8,62.4,29.68,SSW,192,1.0,4.0,80,0.00,,,0.00,Wunderground v.1.15,2013-04-24 05:02:00,
2013-04-24 00:03:00,68.8,62.4,29.68,South,191,0.0,1.0,80,0.00,,,0.00,Wunderground v.1.15,2013-04-24 05:03:00,
2013-04-24 00:08:00,68.5,62.8,29.69,SSW,192,0.0,1.0,82,0.00,,,0.00,Wunderground v.1.15,2013-04-24 05:08:00,
2013-04-24 00:09:00,68.4,63.0,29.69,SSW,192,0.0,1.0,83,0.00,,,0.00,Wunderground v.1.15,2013-04-24 05:09:00,
2013-04-24 00:10:00,68.2,62.8,29.69,SSW,192,0.0,1.0,83,0.00,,,0.00,Wunderground v.1.15,2013-04-24 05:10:00,
2013-04-24 00:11:00,68.2,62.8,29.69,SSW,192,0.0,1.0,83,0.00,,,0.00,Wunderground v.1.15,2013-04-24 05:11:00,
2013-04-24 00:13:00,68.0,63.0,29.69,SSW,192,0.0,0.0,84,0.00,,,0.00,Wunderground v.1.15,2013-04-24 05:13:00,
2013-04-24 00:14:00,67.9,62.9,29.69,SSW,192,0.0,0.0,84,0.00,,,0.00,Wunderground v.1.15,2013-04-24 05:14:00,
2013-04-24 00:16:00,67.8,62.8,29.68,SSW,192,0.0,0.0,84,0.00,,,0.00,Wunderground v.1.15,2013-04-24 05:16:00,
2013-04-24 00:18:00,67.7,63.0,29.68,SSW,192,0.0,0.0,85,0.00,,,0.00,Wunderground v.1.15,2013-04-24 05:18:00,
2013-04-24 00:20:00,67.6,62.9,29.69,SSW,192,0.0,0.0,85,0.00,,,0.00,Wunderground v.1.15,2013-04-24 05:20:00,
2013-04-24 00:21:00,67.5,62.8,29.69,SSW,192,0.0,0.0,85,0.00,,,0.01,Wunderground v.1.15,2013-04-24 05:21:00,
2013-04-24 00:23:00,67.4,63.4,29.69,ESE,113,0.0,0.0,87,3.53,,,0.09,Wunderground v.1.15,2013-04-24 05:23:00,
2013-04-24 00:26:00,67.1,63.4,29.69,South,173,2.0,4.0,88,2.74,,,0.21,Wunderground v.1.15,2013-04-24 05:26:00,
2013-04-24 00:27:00,66.9,63.2,29.68,ESE,123,0.0,4.0,88,1.19,,,0.26,Wunderground v.1.15,2013-04-24 05:27:00,
2013-04-24 00:31:00,66.7,63.4,29.68,SSW,195,0.0,5.0,89,0.67,,,0.28,Wunderground v.1.15,2013-04-24 05:31:00,
2013-04-24 00:32:00,66.6,63.3,29.68,SSW,195,0.0,5.0,89,0.38,,,0.28,Wunderground v.1.15,2013-04-24 05:32:00,
2013-04-24 00:33:00,66.5,63.2,29.69,SSW,196,0.0,1.0,89,0.33,,,0.29,Wunderground v.1.15,2013-04-24 05:33:00,
2013-04-24 00:34:00,66.4,63.4,29.69,SSW,196,0.0,1.0,90,0.33,,,0.29,Wunderground v.1.15,2013-04-24 05:34:00,
2013-04-24 00:37:00,66.3,63.3,29.69,SSW,195,0.0,1.0,90,0.13,,,0.29,Wunderground v.1.15,2013-04-24 05:37:00,
2013-04-24 00:39:00,66.1,63.7,29.69,SSW,196,0.0,1.0,92,0.10,,,0.30,Wunderground v.1.15,2013-04-24 05:39:00,
2013-04-24 00:40:00,66.1,63.4,29.69,SSW,193,0.0,1.0,91,0.44,,,0.31,Wunderground v.1.15,2013-04-24 05:40:00,
2013-04-24 00:41:00,66.0,63.3,29.69,SSW,194,0.0,1.0,91,0.72,,,0.34,Wunderground v.1.15,2013-04-24 05:41:00,
2013-04-24 00:42:00,65.9,63.2,29.68,SSW,194,0.0,1.0,91,0.40,,,0.34,Wunderground v.1.15,2013-04-24 05:42:00,
2013-04-24 00:45:00,65.8,63.4,29.68,SSW,194,0.0,0.0,92,0.13,,,0.34,Wunderground v.1.15,2013-04-24 05:45:00,
2013-04-24 00:47:00,65.7,63.3,29.68,South,190,1.0,3.0,92,0.09,,,0.34,Wunderground v.1.15,2013-04-24 05:47:00,
2013-04-24 00:48:00,65.7,63.3,29.67,South,190,0.0,3.0,92,0.08,,,0.34,Wunderground v.1.15,2013-04-24 05:48:00,
2013-04-24 00:50:00,65.6,63.2,29.67,SSW,194,0.0,3.0,92,0.06,,,0.34,Wunderground v.1.15,2013-04-24 05:50:00,
2013-04-24 00:52:00,65.5,63.1,29.68,SSW,194,0.0,3.0,92,0.05,,,0.34,Wunderground v.1.15,2013-04-24 05:52:00,
2013-04-24 00:54:00,65.4,63.0,29.67,SSW,194,0.0,0.0,92,0.04,,,0.34,Wunderground v.1.15,2013-04-24 05:54:00,
2013-04-24 00:55:00,65.4,63.0,29.68,SSW,194,0.0,0.0,92,0.04,,,0.34,Wunderground v.1.15,2013-04-24 05:55:00,
2013-04-24 00:56:00,65.4,63.0,29.68,SSW,194,0.0,0.0,92,0.04,,,0.34,Wunderground v.1.15,2013-04-24 05:56:00,
2013-04-24 00:58:00,65.3,63.2,29.68,SSW,194,0.0,0.0,93,0.00,,,0.34,Wunderground v.1.15,2013-04-24 05:58:00,
2013-04-24 01:02:00,65.1,63.0,29.68,SSW,194,0.0,0.0,93,0.00,,,0.34,Wunderground v.1.15,2013-04-24 06:02:00,
2013-04-24 01:03:00,65.1,63.0,29.68,SSW,194,0.0,0.0,93,0.00,,,0.34,Wunderground v.1.15,2013-04-24 06:03:00,
2013-04-24 01:04:00,65.1,63.0,29.68,SSW,194,0.0,0.0,93,0.00,,,0.34,Wunderground v.1.15,2013-04-24 06:04:00,
2013-04-24 01:05:00,65.1,63.0,29.68,SSW,194,0.0,0.0,93,0.00,,,0.34,Wunderground v.1.15,2013-04-24 06:05:00,
2013-04-24 01:06:00,65.0,62.9,29.68,SSW,194,0.0,0.0,93,0.00,,,0.34,Wunderground v.1.15,2013-04-24 06:06:00,
2013-04-24 01:07:00,65.0,62.9,29.68,SSW,194,0.0,0.0,93,0.00,,,0.34,Wunderground v.1.15,2013-04-24 06:07:00,
2013-04-24 01:09:00,65.0,62.9,29.68,SSW,194,0.0,0.0,93,0.00,,,0.34,Wunderground v.1.15,2013-04-24 06:09:00,
2013-04-24 01:12:00,64.9,62.8,29.68,SSW,194,0.0,0.0,93,0.00,,,0.34,Wunderground v.1.15,2013-04-24 06:12:00,
2013-04-24 01:13:00,64.9,62.8,29.68,SSW,194,0.0,0.0,93,0.00,,,0.34,Wunderground v.1.15,2013-04-24 06:13:00,
2013-04-24 01:15:00,64.9,62.8,29.67,SSW,194,0.0,0.0,93,0.00,,,0.34,Wunderground v.1.15,2013-04-24 06:15:00,
2013-04-24 01:17:00,64.9,62.8,29.67,SSW,194,0.0,0.0,93,0.00,,,0.34,Wunderground v.1.15,2013-04-24 06:17:00,
2013-04-24 01:19:00,64.9,62.8,29.67,SSW,194,0.0,0.0,93,0.00,,,0.34,Wunderground v.1.15,2013-04-24 06:19:00,
2013-04-24 01:20:00,64.8,62.7,29.67,SSW,194,0.0,0.0,93,0.00,,,0.34,Wunderground v.1.15,2013-04-24 06:20:00,
2013-04-24 01:22:00,64.8,62.7,29.66,SSW,194,0.0,0.0,93,0.00,,,0.34,Wunderground v.1.15,2013-04-24 06:22:00,
2013-04-24 01:24:00,64.8,62.7,29.66,SSW,194,0.0,0.0,93,0.00,,,0.34,Wunderground v.1.15,2013-04-24 06:24:00,
2013-04-24 01:25:00,64.9,62.8,29.66,SSW,194,1.0,1.0,93,0.00,,,0.34,Wunderground v.1.15,2013-04-24 06:25:00,
2013-04-24 01:27:00,64.9,62.8,29.66,SSW,194,0.0,1.0,93,0.00,,,0.34,Wunderground v.1.15,2013-04-24 06:27:00,
2013-04-24 01:29:00,64.9,62.8,29.67,SSW,194,0.0,1.0,93,0.00,,,0.35,Wunderground v.1.15,2013-04-24 06:29:00,
2013-04-24 01:31:00,64.9,62.8,29.66,SSW,194,0.0,1.0,93,0.00,,,0.35,Wunderground v.1.15,2013-04-24 06:31:00,
2013-04-24 01:33:00,64.9,63.1,29.67,SSW,194,0.0,0.0,94,0.00,,,0.35,Wunderground v.1.15,2013-04-24 06:33:00,
2013-04-24 01:34:00,64.8,63.0,29.67,SSW,194,0.0,0.0,94,0.00,,,0.35,Wunderground v.1.15,2013-04-24 06:34:00,
2013-04-24 01:36:00,64.8,63.0,29.67,SSW,194,0.0,0.0,94,0.00,,,0.35,Wunderground v.1.15,2013-04-24 06:36:00,
2013-04-24 01:37:00,64.8,63.0,29.67,SSW,194,0.0,0.0,94,0.00,,,0.35,Wunderground v.1.15,2013-04-24 06:37:00,
2013-04-24 01:40:00,64.8,63.0,29.66,SSW,194,0.0,0.0,94,0.00,,,0.35,Wunderground v.1.15,2013-04-24 06:40:00,
2013-04-24 01:42:00,64.8,63.0,29.67,SSW,194,0.0,0.0,94,0.00,,,0.35,Wunderground v.1.15,2013-04-24 06:42:00,
2013-04-24 01:44:00,64.8,63.0,29.66,SSW,194,0.0,0.0,94,0.04,,,0.36,Wunderground v.1.15,2013-04-24 06:44:00,
2013-04-24 01:45:00,64.7,62.9,29.66,SSW,194,0.0,0.0,94,0.36,,,0.37,Wunderground v.1.15,2013-04-24 06:45:00,
2013-04-24 01:47:00,64.8,63.0,29.66,SSW,194,0.0,0.0,94,0.29,,,0.38,Wunderground v.1.15,2013-04-24 06:47:00,
2013-04-24 01:51:00,64.8,63.0,29.66,SSW,194,0.0,0.0,94,0.29,,,0.41,Wunderground v.1.15,2013-04-24 06:51:00,
2013-04-24 01:52:00,64.8,63.0,29.66,SSW,194,0.0,0.0,94,0.19,,,0.41,Wunderground v.1.15,2013-04-24 06:52:00,
2013-04-24 01:56:00,64.8,63.0,29.66,SSW,194,0.0,0.0,94,0.12,,,0.42,Wunderground v.1.15,2013-04-24 06:56:00,
2013-04-24 01:57:00,64.8,63.0,29.66,SSW,194,0.0,0.0,94,0.12,,,0.42,Wunderground v.1.15,2013-04-24 06:57:00,
2013-04-24 01:59:00,64.8,63.0,29.66,SSW,194,0.0,0.0,94,0.15,,,0.43,Wunderground v.1.15,2013-04-24 06:59:00,
2013-04-24 02:04:00,64.8,63.0,29.66,SSE,164,0.0,0.0,94,0.14,,,0.44,Wunderground v.1.15,2013-04-24 07:04:00,
2013-04-24 02:09:00,64.8,63.0,29.65,SSE,165,0.0,0.0,94,0.15,,,0.45,Wunderground v.1.15,2013-04-24 07:09:00,
2013-04-24 02:10:00,64.8,63.0,29.65,SSE,165,0.0,0.0,94,0.15,,,0.45,Wunderground v.1.15,2013-04-24 07:10:00,
2013-04-24 02:15:00,64.8,63.0,29.64,SSE,165,0.0,0.0,94,0.16,,,0.46,Wunderground v.1.15,2013-04-24 07:15:00,
2013-04-24 02:20:00,64.9,63.1,29.64,SSE,164,0.0,0.0,94,0.13,,,0.48,Wunderground v.1.15,2013-04-24 07:20:00,
2013-04-24 02:22:00,64.9,63.1,29.65,SSE,164,0.0,0.0,94,0.26,,,0.49,Wunderground v.1.15,2013-04-24 07:22:00,
2013-04-24 02:25:00,64.8,63.0,29.64,SSE,165,0.0,0.0,94,0.17,,,0.49,Wunderground v.1.15,2013-04-24 07:25:00,
2013-04-24 02:26:00,64.8,63.0,29.64,SSE,164,0.0,0.0,94,0.14,,,0.49,Wunderground v.1.15,2013-04-24 07:26:00,
2013-04-24 02:27:00,64.8,63.0,29.65,SSE,164,0.0,0.0,94,0.10,,,0.49,Wunderground v.1.15,2013-04-24 07:27:00,
2013-04-24 02:30:00,64.8,63.0,29.65,SSE,165,0.0,0.0,94,0.08,,,0.50,Wunderground v.1.15,2013-04-24 07:30:00,
2013-04-24 02:31:00,64.8,63.0,29.65,SSE,165,0.0,0.0,94,0.08,,,0.50,Wunderground v.1.15,2013-04-24 07:31:00,
2013-04-24 02:32:00,64.8,63.0,29.65,SSE,165,0.0,0.0,94,0.08,,,0.50,Wunderground v.1.15,2013-04-24 07:32:00,
2013-04-24 02:33:00,64.8,63.0,29.65,SSE,165,0.0,0.0,94,0.08,,,0.50,Wunderground v.1.15,2013-04-24 07:33:00,
2013-04-24 02:36:00,64.8,63.0,29.65,SSE,164,0.0,0.0,94,0.08,,,0.50,Wunderground v.1.15,2013-04-24 07:36:00,
2013-04-24 02:37:00,64.8,63.0,29.65,SSE,165,0.0,0.0,94,0.08,,,0.50,Wunderground v.1.15,2013-04-24 07:37:00,
2013-04-24 02:40:00,64.8,63.0,29.64,SSE,165,0.0,0.0,94,0.05,,,0.50,Wunderground v.1.15,2013-04-24 07:40:00,
2013-04-24 02:41:00,64.8,63.0,29.64,SSE,165,0.0,0.0,94,0.05,,,0.50,Wunderground v.1.15,2013-04-24 07:41:00,
2013-04-24 02:42:00,64.8,63.0,29.65,SSE,165,0.0,0.0,94,0.05,,,0.50,Wunderground v.1.15,2013-04-24 07:42:00,
2013-04-24 02:46:00,64.8,63.0,29.65,SSE,167,0.0,0.0,94,0.04,,,0.51,Wunderground v.1.15,2013-04-24 07:46:00,
2013-04-24 02:47:00,64.8,63.0,29.65,West,261,1.0,3.0,94,0.41,,,0.52,Wunderground v.1.15,2013-04-24 07:47:00,
2013-04-24 02:48:00,64.8,63.0,29.66,WNW,293,3.0,6.0,94,0.31,,,0.52,Wunderground v.1.15,2013-04-24 07:48:00,
2013-04-24 02:51:00,62.9,60.5,29.66,WNW,299,2.0,6.0,92,0.11,,,0.52,Wunderground v.1.15,2013-04-24 07:51:00,
2013-04-24 02:52:00,62.6,60.2,29.66,ESE,107,4.0,6.0,92,0.10,,,0.52,Wunderground v.1.15,2013-04-24 07:52:00,
2013-04-24 02:53:00,62.1,59.7,29.66,NW,313,3.0,3.0,92,0.09,,,0.53,Wunderground v.1.15,2013-04-24 07:53:00,
2013-04-24 02:57:00,60.4,58.1,29.66,NW,307,4.0,6.0,92,0.09,,,0.53,Wunderground v.1.15,2013-04-24 07:57:00,
2013-04-24 02:58:00,60.0,57.7,29.67,WNW,287,2.0,6.0,92,0.09,,,0.53,Wunderground v.1.15,2013-04-24 07:58:00,
2013-04-24 02:59:00,59.5,56.9,29.66,WNW,301,0.0,6.0,91,0.09,,,0.53,Wunderground v.1.15,2013-04-24 07:59:00,
2013-04-24 03:03:00,58.7,56.4,29.67,WNW,300,0.0,6.0,92,0.06,,,0.53,Wunderground v.1.15,2013-04-24 08:03:00,
2013-04-24 03:04:00,58.4,56.1,29.67,NW,311,2.0,6.0,92,0.05,,,0.53,Wunderground v.1.15,2013-04-24 08:04:00,
2013-04-24 03:08:00,57.3,55.0,29.68,WNW,303,6.0,9.0,92,0.04,,,0.53,Wunderground v.1.15,2013-04-24 08:08:00,
2013-04-24 03:09:00,57.2,54.9,29.68,NW,312,0.0,9.0,92,0.04,,,0.53,Wunderground v.1.15,2013-04-24 08:09:00,
2013-04-24 03:10:00,56.9,54.6,29.68,North,355,1.0,9.0,92,0.00,,,0.53,Wunderground v.1.15,2013-04-24 08:10:00,
2013-04-24 03:13:00,56.4,54.4,29.67,WNW,298,0.0,2.0,93,0.00,,,0.54,Wunderground v.1.15,2013-04-24 08:13:00,
2013-04-24 03:14:00,56.3,54.3,29.67,WNW,298,0.0,2.0,93,0.00,,,0.54,Wunderground v.1.15,2013-04-24 08:14:00,
2013-04-24 03:15:00,56.1,54.1,29.67,WNW,298,0.0,2.0,93,0.00,,,0.54,Wunderground v.1.15,2013-04-24 08:15:00,
2013-04-24 03:18:00,55.8,53.8,29.68,NNW,340,0.0,3.0,93,0.00,,,0.54,Wunderground v.1.15,2013-04-24 08:18:00,
2013-04-24 03:19:00,55.6,53.6,29.69,NW,325,0.0,3.0,93,0.00,,,0.54,Wunderground v.1.15,2013-04-24 08:19:00,
2013-04-24 03:20:00,55.5,53.5,29.69,NW,304,6.0,6.0,93,0.00,,,0.54,Wunderground v.1.15,2013-04-24 08:20:00,
2013-04-24 03:23:00,55.0,53.0,29.69,North,350,0.0,1.0,93,0.00,,,0.54,Wunderground v.1.15,2013-04-24 08:23:00,
2013-04-24 03:24:00,55.0,53.0,29.69,North,350,0.0,1.0,93,0.00,,,0.54,Wunderground v.1.15,2013-04-24 08:24:00,
2013-04-24 03:25:00,54.9,52.9,29.69,NNW,333,0.0,3.0,93,0.00,,,0.54,Wunderground v.1.15,2013-04-24 08:25:00,
2013-04-24 03:26:00,54.8,52.8,29.69,NNW,333,0.0,3.0,93,0.00,,,0.54,Wunderground v.1.15,2013-04-24 08:26:00,
2013-04-24 03:28:00,54.7,52.7,29.69,NNW,333,0.0,3.0,93,0.00,,,0.54,Wunderground v.1.15,2013-04-24 08:28:00,
2013-04-24 03:29:00,54.6,52.6,29.69,ENE,65,0.0,3.0,93,0.00,,,0.54,Wunderground v.1.15,2013-04-24 08:29:00,
2013-04-24 03:30:00,54.6,52.6,29.69,NNW,330,1.0,3.0,93,0.00,,,0.54,Wunderground v.1.15,2013-04-24 08:30:00,
2013-04-24 03:31:00,54.5,52.5,29.69,NNW,330,0.0,3.0,93,0.00,,,0.54,Wunderground v.1.15,2013-04-24 08:31:00,
2013-04-24 03:33:00,54.2,52.2,29.69,WNW,302,2.0,5.0,93,0.00,,,0.54,Wunderground v.1.15,2013-04-24 08:33:00,
2013-04-24 03:34:00,54.1,52.1,29.69,NW,306,0.0,5.0,93,0.00,,,0.54,Wunderground v.1.15,2013-04-24 08:34:00,
2013-04-24 03:36:00,53.9,51.9,29.69,NW,305,0.0,5.0,93,0.00,,,0.54,Wunderground v.1.15,2013-04-24 08:36:00,
2013-04-24 03:39:00,53.5,51.5,29.69,NW,306,0.0,5.0,93,0.00,,,0.54,Wunderground v.1.15,2013-04-24 08:39:00,
2013-04-24 03:40:00,53.5,51.5,29.69,NW,306,0.0,5.0,93,0.00,,,0.54,Wunderground v.1.15,2013-04-24 08:40:00,
2013-04-24 03:41:00,53.4,51.4,29.69,NW,308,4.0,5.0,93,0.00,,,0.54,Wunderground v.1.15,2013-04-24 08:41:00,
2013-04-24 03:44:00,53.2,51.2,29.70,NW,305,0.0,1.0,93,0.00,,,0.54,Wunderground v.1.15,2013-04-24 08:44:00,
2013-04-24 03:45:00,53.2,51.2,29.70,NW,305,0.0,1.0,93,0.00,,,0.54,Wunderground v.1.15,2013-04-24 08:45:00,
2013-04-24 03:46:00,53.1,51.1,29.70,NW,305,0.0,1.0,93,0.00,,,0.54,Wunderground v.1.15,2013-04-24 08:46:00,
2013-04-24 03:47:00,53.0,51.0,29.71,NW,305,0.0,1.0,93,0.00,,,0.55,Wunderground v.1.15,2013-04-24 08:47:00,
2013-04-24 03:49:00,52.9,50.9,29.72,NW,306,5.0,5.0,93,0.00,,,0.55,Wunderground v.1.15,2013-04-24 08:49:00,
2013-04-24 03:50:00,52.8,50.8,29.72,WNW,299,3.0,6.0,93,0.00,,,0.55,Wunderground v.1.15,2013-04-24 08:50:00,
2013-04-24 03:51:00,52.6,50.6,29.72,NW,317,1.0,6.0,93,0.00,,,0.55,Wunderground v.1.15,2013-04-24 08:51:00,
2013-04-24 03:52:00,52.5,50.5,29.72,NW,309,6.0,6.0,93,0.00,,,0.55,Wunderground v.1.15,2013-04-24 08:52:00,
2013-04-24 03:56:00,51.9,49.9,29.73,NW,311,4.0,4.0,93,0.00,,,0.55,Wunderground v.1.15,2013-04-24 08:56:00,
2013-04-24 03:57:00,51.7,49.7,29.73,NW,310,0.0,4.0,93,0.00,,,0.55,Wunderground v.1.15,2013-04-24 08:57:00,
2013-04-24 03:58:00,51.6,49.6,29.74,WNW,300,0.0,4.0,93,0.00,,,0.55,Wunderground v.1.15,2013-04-24 08:58:00,
2013-04-24 04:01:00,51.4,49.4,29.73,WNW,301,4.0,4.0,93,0.00,,,0.55,Wunderground v.1.15,2013-04-24 09:01:00,
2013-04-24 04:02:00,51.3,49.3,29.73,WNW,300,0.0,4.0,93,0.00,,,0.55,Wunderground v.1.15,2013-04-24 09:02:00,
2013-04-24 04:04:00,51.2,49.2,29.73,WNW,297,2.0,5.0,93,0.00,,,0.55,Wunderground v.1.15,2013-04-24 09:04:00,
2013-04-24 04:06:00,51.0,49.0,29.73,WNW,301,2.0,5.0,93,0.00,,,0.55,Wunderground v.1.15,2013-04-24 09:06:00,
2013-04-24 04:07:00,50.8,48.8,29.73,WNW,300,0.0,5.0,93,0.00,,,0.55,Wunderground v.1.15,2013-04-24 09:07:00,
2013-04-24 04:08:00,50.7,48.7,29.73,NW,304,2.0,5.0,93,0.00,,,0.55,Wunderground v.1.15,2013-04-24 09:08:00,
2013-04-24 04:09:00,50.5,48.6,29.73,WNW,303,0.0,5.0,93,0.00,,,0.55,Wunderground v.1.15,2013-04-24 09:09:00,
2013-04-24 04:12:00,50.3,48.4,29.74,WNW,303,0.0,5.0,93,0.00,,,0.55,Wunderground v.1.15,2013-04-24 09:12:00,
2013-04-24 04:13:00,50.2,48.3,29.74,WNW,303,0.0,5.0,93,0.00,,,0.55,Wunderground v.1.15,2013-04-24 09:13:00,
2013-04-24 04:14:00,50.2,48.3,29.75,NW,304,0.0,3.0,93,0.00,,,0.55,Wunderground v.1.15,2013-04-24 09:14:00,
2013-04-24 04:18:00,49.9,48.0,29.73,NW,309,5.0,5.0,93,0.00,,,0.55,Wunderground v.1.15,2013-04-24 09:18:00,
2013-04-24 04:19:00,49.8,47.9,29.73,NW,309,0.0,5.0,93,0.00,,,0.56,Wunderground v.1.15,2013-04-24 09:19:00,
2013-04-24 04:20:00,49.7,47.8,29.73,NW,309,0.0,5.0,93,0.00,,,0.56,Wunderground v.1.15,2013-04-24 09:20:00,
2013-04-24 04:23:00,49.6,47.9,29.74,NW,305,2.0,3.0,94,0.00,,,0.56,Wunderground v.1.15,2013-04-24 09:23:00,
2013-04-24 04:24:00,49.6,47.9,29.74,NW,305,0.0,3.0,94,0.00,,,0.56,Wunderground v.1.15,2013-04-24 09:24:00,
2013-04-24 04:25:00,49.5,47.6,29.74,NW,305,0.0,3.0,93,0.00,,,0.56,Wunderground v.1.15,2013-04-24 09:25:00,
2013-04-24 04:29:00,49.4,47.7,29.74,WNW,298,0.0,3.0,94,0.00,,,0.56,Wunderground v.1.15,2013-04-24 09:29:00,
2013-04-24 04:30:00,49.4,47.7,29.74,WNW,298,0.0,3.0,94,0.00,,,0.56,Wunderground v.1.15,2013-04-24 09:30:00,
2013-04-24 04:34:00,49.2,47.5,29.74,NW,323,0.0,0.0,94,0.00,,,0.56,Wunderground v.1.15,2013-04-24 09:34:00,
2013-04-24 04:35:00,49.2,47.5,29.74,NW,323,0.0,0.0,94,0.00,,,0.56,Wunderground v.1.15,2013-04-24 09:35:00,
2013-04-24 04:36:00,49.2,47.5,29.74,NW,324,0.0,0.0,94,0.00,,,0.56,Wunderground v.1.15,2013-04-24 09:36:00,
2013-04-24 04:37:00,49.2,47.5,29.74,NNW,328,0.0,0.0,94,0.00,,,0.56,Wunderground v.1.15,2013-04-24 09:37:00,
2013-04-24 04:39:00,49.2,47.5,29.74,NNW,345,0.0,1.0,94,0.00,,,0.56,Wunderground v.1.15,2013-04-24 09:39:00,
2013-04-24 04:40:00,49.2,47.5,29.74,NNW,345,0.0,1.0,94,0.00,,,0.56,Wunderground v.1.15,2013-04-24 09:40:00,
2013-04-24 04:41:00,49.2,47.5,29.74,NW,313,3.0,3.0,94,0.00,,,0.56,Wunderground v.1.15,2013-04-24 09:41:00,
2013-04-24 04:42:00,49.2,47.5,29.74,NW,313,2.0,3.0,94,0.00,,,0.56,Wunderground v.1.15,2013-04-24 09:42:00,
2013-04-24 04:45:00,49.0,47.3,29.74,NNW,346,0.0,6.0,94,0.00,,,0.56,Wunderground v.1.15,2013-04-24 09:45:00,
2013-04-24 04:46:00,48.9,47.2,29.74,WNW,303,2.0,6.0,94,0.00,,,0.56,Wunderground v.1.15,2013-04-24 09:46:00,
2013-04-24 04:47:00,48.8,47.2,29.74,WNW,303,3.0,6.0,94,0.00,,,0.56,Wunderground v.1.15,2013-04-24 09:47:00,
2013-04-24 04:51:00,48.6,47.0,29.74,NW,304,2.0,6.0,94,0.00,,,0.56,Wunderground v.1.15,2013-04-24 09:51:00,
2013-04-24 04:52:00,48.5,46.9,29.74,WNW,303,0.0,6.0,94,0.00,,,0.56,Wunderground v.1.15,2013-04-24 09:52:00,
2013-04-24 04:53:00,48.5,46.9,29.73,WNW,303,0.0,6.0,94,0.00,,,0.56,Wunderground v.1.15,2013-04-24 09:53:00,
2013-04-24 04:56:00,48.5,46.9,29.74,NW,314,1.0,4.0,94,0.00,,,0.56,Wunderground v.1.15,2013-04-24 09:56:00,
2013-04-24 04:57:00,48.4,46.8,29.74,NW,314,1.0,4.0,94,0.00,,,0.56,Wunderground v.1.15,2013-04-24 09:57:00,
2013-04-24 04:58:00,48.5,46.9,29.74,NW,314,0.0,4.0,94,0.00,,,0.56,Wunderground v.1.15,2013-04-24 09:58:00,
2013-04-24 04:59:00,48.4,46.8,29.74,NNW,336,0.0,4.0,94,0.00,,,0.56,Wunderground v.1.15,2013-04-24 09:59:00,
2013-04-24 05:01:00,48.4,46.8,29.74,NW,315,0.0,4.0,94,0.00,,,0.56,Wunderground v.1.15,2013-04-24 10:01:00,
2013-04-24 05:03:00,48.4,46.8,29.74,NW,313,2.0,5.0,94,0.00,,,0.56,Wunderground v.1.15,2013-04-24 10:03:00,
2013-04-24 05:04:00,48.3,46.7,29.74,NW,313,0.0,2.0,94,0.00,,,0.56,Wunderground v.1.15,2013-04-24 10:04:00,
2013-04-24 05:07:00,48.3,46.7,29.74,NW,313,0.0,3.0,94,0.00,,,0.56,Wunderground v.1.15,2013-04-24 10:07:00,
2013-04-24 05:08:00,48.3,46.7,29.75,NW,313,0.0,3.0,94,0.00,,,0.56,Wunderground v.1.15,2013-04-24 10:08:00,
2013-04-24 05:09:00,48.3,46.7,29.75,NW,313,0.0,3.0,94,0.00,,,0.56,Wunderground v.1.15,2013-04-24 10:09:00,
2013-04-24 05:13:00,48.2,46.6,29.74,North,5,0.0,1.0,94,0.00,,,0.56,Wunderground v.1.15,2013-04-24 10:13:00,
2013-04-24 05:14:00,48.2,46.6,29.73,North,5,0.0,1.0,94,0.00,,,0.56,Wunderground v.1.15,2013-04-24 10:14:00,
2013-04-24 05:15:00,48.2,46.6,29.74,North,5,0.0,1.0,94,0.00,,,0.56,Wunderground v.1.15,2013-04-24 10:15:00,
2013-04-24 05:19:00,48.1,46.5,29.75,NE,34,0.0,2.0,94,0.00,,,0.56,Wunderground v.1.15,2013-04-24 10:19:00,
2013-04-24 05:20:00,48.1,46.5,29.76,NW,322,4.0,4.0,94,0.00,,,0.56,Wunderground v.1.15,2013-04-24 10:20:00,
2013-04-24 05:24:00,48.1,46.5,29.77,NW,319,1.0,4.0,94,0.00,,,0.56,Wunderground v.1.15,2013-04-24 10:24:00,
2013-04-24 05:25:00,48.1,46.5,29.77,NW,319,3.0,4.0,94,0.00,,,0.56,Wunderground v.1.15,2013-04-24 10:25:00,
2013-04-24 05:27:00,48.1,46.5,29.78,NW,310,3.0,5.0,94,0.00,,,0.56,Wunderground v.1.15,2013-04-24 10:27:00,
2013-04-24 05:30:00,48.0,46.4,29.77,NW,311,0.0,6.0,94,0.00,,,0.56,Wunderground v.1.15,2013-04-24 10:30:00,
2013-04-24 05:31:00,48.0,46.4,29.78,WNW,300,0.0,6.0,94,0.00,,,0.56,Wunderground v.1.15,2013-04-24 10:31:00,
2013-04-24 05:33:00,47.9,46.3,29.78,WNW,302,0.0,1.0,94,0.00,,,0.56,Wunderground v.1.15,2013-04-24 10:33:00,
2013-04-24 05:35:00,47.8,46.2,29.78,WNW,302,2.0,3.0,94,0.00,,,0.56,Wunderground v.1.15,2013-04-24 10:35:00,
2013-04-24 05:36:00,47.8,46.2,29.77,WNW,302,0.0,3.0,94,0.00,,,0.57,Wunderground v.1.15,2013-04-24 10:36:00,
2013-04-24 05:38:00,47.7,46.1,29.77,WNW,302,0.0,3.0,94,0.00,,,0.57,Wunderground v.1.15,2013-04-24 10:38:00,
2013-04-24 05:40:00,47.7,46.1,29.78,WNW,302,0.0,3.0,94,0.00,,,0.57,Wunderground v.1.15,2013-04-24 10:40:00,
2013-04-24 05:41:00,47.7,46.1,29.77,WNW,292,0.0,3.0,94,0.00,,,0.57,Wunderground v.1.15,2013-04-24 10:41:00,
2013-04-24 05:44:00,47.5,45.9,29.79,WNW,293,3.0,4.0,94,0.52,,,0.59,Wunderground v.1.15,2013-04-24 10:44:00,
2013-04-24 05:45:00,47.5,45.9,29.80,WNW,292,0.0,4.0,94,0.42,,,0.60,Wunderground v.1.15,2013-04-24 10:45:00,
2013-04-24 05:46:00,47.4,45.8,29.80,WNW,294,3.0,4.0,94,0.42,,,0.60,Wunderground v.1.15,2013-04-24 10:46:00,
2013-04-24 05:49:00,47.2,45.6,29.79,NW,315,1.0,6.0,94,0.13,,,0.60,Wunderground v.1.15,2013-04-24 10:49:00,
2013-04-24 05:50:00,47.1,45.5,29.79,NW,315,2.0,6.0,94,0.10,,,0.60,Wunderground v.1.15,2013-04-24 10:50:00,
2013-04-24 05:51:00,47.0,45.4,29.80,NW,316,0.0,6.0,94,0.09,,,0.60,Wunderground v.1.15,2013-04-24 10:51:00,
2013-04-24 05:53:00,46.9,45.3,29.80,NW,306,3.0,3.0,94,0.07,,,0.60,Wunderground v.1.15,2013-04-24 10:53:00,
2013-04-24 05:54:00,46.9,45.3,29.80,NW,306,0.0,3.0,94,0.06,,,0.60,Wunderground v.1.15,2013-04-24 10:54:00,
2013-04-24 05:56:00,46.8,45.2,29.79,NW,306,4.0,5.0,94,0.05,,,0.60,Wunderground v.1.15,2013-04-24 10:56:00,
2013-04-24 05:57:00,46.7,45.1,29.80,NW,309,11.0,11.0,94,0.05,,,0.60,Wunderground v.1.15,2013-04-24 10:57:00,
2013-04-24 05:58:00,46.7,45.1,29.80,NW,315,5.0,11.0,94,0.05,,,0.60,Wunderground v.1.15,2013-04-24 10:58:00,
2013-04-24 05:59:00,46.6,45.0,29.80,NW,315,2.0,11.0,94,0.04,,,0.60,Wunderground v.1.15,2013-04-24 10:59:00,
2013-04-24 06:02:00,46.6,45.0,29.81,NW,325,3.0,11.0,94,0.00,,,0.60,Wunderground v.1.15,2013-04-24 11:02:00,
2013-04-24 06:03:00,46.5,44.9,29.81,NW,306,3.0,11.0,94,0.00,,,0.60,Wunderground v.1.15,2013-04-24 11:03:00,
2013-04-24 06:05:00,46.5,44.9,29.81,NW,306,1.0,2.0,94,0.00,,,0.60,Wunderground v.1.15,2013-04-24 11:05:00,
2013-04-24 06:08:00,46.5,44.9,29.80,NW,326,4.0,4.0,94,0.00,,,0.60,Wunderground v.1.15,2013-04-24 11:08:00,
2013-04-24 06:11:00,46.3,44.7,29.80,NNW,343,1.0,6.0,94,0.00,,,0.60,Wunderground v.1.15,2013-04-24 11:11:00,
2013-04-24 06:13:00,46.3,44.7,29.80,NNW,340,0.0,2.0,94,0.00,,,0.61,Wunderground v.1.15,2013-04-24 11:13:00,
2013-04-24 06:14:00,46.3,44.7,29.80,NNW,340,0.0,2.0,94,0.00,,,0.61,Wunderground v.1.15,2013-04-24 11:14:00,
2013-04-24 06:16:00,46.2,44.6,29.81,NNW,339,0.0,2.0,94,0.00,,,0.61,Wunderground v.1.15,2013-04-24 11:16:00,
2013-04-24 06:18:00,46.2,44.6,29.81,NW,321,1.0,4.0,94,0.00,,,0.61,Wunderground v.1.15,2013-04-24 11:18:00,
2013-04-24 06:19:00,46.1,44.5,29.81,NW,321,0.0,4.0,94,0.00,,,0.61,Wunderground v.1.15,2013-04-24 11:19:00,
2013-04-24 06:22:00,46.1,44.5,29.79,NNE,28,1.0,4.0,94,0.00,,,0.61,Wunderground v.1.15,2013-04-24 11:22:00,
2013-04-24 06:24:00,46.0,44.4,29.80,NNE,26,0.0,2.0,94,0.00,,,0.61,Wunderground v.1.15,2013-04-24 11:24:00,
2013-04-24 06:28:00,45.9,44.3,29.81,NNW,348,0.0,3.0,94,0.00,,,0.61,Wunderground v.1.15,2013-04-24 11:28:00,
2013-04-24 06:29:00,45.9,44.3,29.80,NNW,348,0.0,3.0,94,0.00,,,0.61,Wunderground v.1.15,2013-04-24 11:29:00,
2013-04-24 06:34:00,45.8,44.2,29.81,NW,323,1.0,3.0,94,0.00,,,0.61,Wunderground v.1.15,2013-04-24 11:34:00,
2013-04-24 06:35:00,45.8,44.2,29.80,NW,323,2.0,3.0,94,0.00,,,0.61,Wunderground v.1.15,2013-04-24 11:35:00,
2013-04-24 06:39:00,45.7,44.1,29.79,WNW,296,0.0,5.0,94,0.00,,,0.62,Wunderground v.1.15,2013-04-24 11:39:00,
2013-04-24 06:40:00,45.7,44.1,29.79,WNW,296,2.0,5.0,94,0.00,,,0.62,Wunderground v.1.15,2013-04-24 11:40:00,
2013-04-24 06:41:00,45.6,44.0,29.79,WNW,296,3.0,5.0,94,0.00,,,0.62,Wunderground v.1.15,2013-04-24 11:41:00,
2013-04-24 06:44:00,45.6,44.0,29.79,WNW,296,0.0,1.0,94,0.00,,,0.62,Wunderground v.1.15,2013-04-24 11:44:00,
2013-04-24 06:45:00,45.6,44.0,29.79,WNW,296,0.0,1.0,94,0.00,,,0.62,Wunderground v.1.15,2013-04-24 11:45:00,
2013-04-24 06:46:00,45.6,44.0,29.79,WNW,296,0.0,1.0,94,0.00,,,0.62,Wunderground v.1.15,2013-04-24 11:46:00,
2013-04-24 06:50:00,45.5,43.9,29.80,NW,321,0.0,1.0,94,0.00,,,0.62,Wunderground v.1.15,2013-04-24 11:50:00,
2013-04-24 06:51:00,45.5,43.9,29.81,NW,321,0.0,1.0,94,0.00,,,0.62,Wunderground v.1.15,2013-04-24 11:51:00,
2013-04-24 06:55:00,45.6,44.0,29.82,NW,324,0.0,1.0,94,0.00,,,0.62,Wunderground v.1.15,2013-04-24 11:55:00,
2013-04-24 06:56:00,45.6,44.0,29.82,NW,324,0.0,1.0,94,0.00,,,0.62,Wunderground v.1.15,2013-04-24 11:56:00,
2013-04-24 06:57:00,45.6,44.0,29.83,NW,324,0.0,1.0,94,0.00,,,0.62,Wunderground v.1.15,2013-04-24 11:57:00,
2013-04-24 07:01:00,45.6,44.0,29.82,NNE,17,2.0,2.0,94,0.00,,,0.62,Wunderground v.1.15,2013-04-24 12:01:00,
2013-04-24 07:02:00,45.5,43.9,29.81,NNW,348,2.0,3.0,94,0.00,,,0.62,Wunderground v.1.15,2013-04-24 12:02:00,
2013-04-24 07:03:00,45.5,43.9,29.80,North,360,0.0,0.0,94,0.00,,,0.62,Wunderground v.1.15,2013-04-24 12:03:00,
2013-04-24 07:06:00,45.5,43.9,29.81,NE,37,1.0,3.0,94,0.00,,,0.62,Wunderground v.1.15,2013-04-24 12:06:00,
2013-04-24 07:08:00,45.4,43.8,29.82,NW,317,0.0,3.0,94,0.00,,,0.62,Wunderground v.1.15,2013-04-24 12:08:00,
2013-04-24 07:11:00,45.3,43.7,29.81,NNW,337,1.0,3.0,94,0.00,,,0.63,Wunderground v.1.15,2013-04-24 12:11:00,
2013-04-24 07:12:00,45.3,43.7,29.82,NNW,337,0.0,3.0,94,0.00,,,0.63,Wunderground v.1.15,2013-04-24 12:12:00,
2013-04-24 07:13:00,45.3,43.7,29.82,NNW,337,0.0,0.0,94,0.00,,,0.63,Wunderground v.1.15,2013-04-24 12:13:00,
2013-04-24 07:17:00,45.3,43.7,29.83,NNW,331,0.0,1.0,94,0.00,,,0.63,Wunderground v.1.15,2013-04-24 12:17:00,
2013-04-24 07:19:00,45.4,43.8,29.84,NNW,331,0.0,1.0,94,0.00,,,0.63,Wunderground v.1.15,2013-04-24 12:19:00,
2013-04-24 07:22:00,45.4,43.8,29.86,NNW,331,0.0,1.0,94,0.00,,,0.63,Wunderground v.1.15,2013-04-24 12:22:00,
2013-04-24 07:24:00,45.5,43.9,29.87,NNW,331,0.0,0.0,94,0.00,,,0.63,Wunderground v.1.15,2013-04-24 12:24:00,
2013-04-24 07:25:00,45.5,43.9,29.87,NNW,330,0.0,0.0,94,0.00,,,0.63,Wunderground v.1.15,2013-04-24 12:25:00,
2013-04-24 07:27:00,45.5,43.9,29.88,NNW,330,0.0,0.0,94,0.00,,,0.63,Wunderground v.1.15,2013-04-24 12:27:00,
2013-04-24 07:28:00,45.5,43.9,29.88,NNW,330,0.0,0.0,94,0.00,,,0.63,Wunderground v.1.15,2013-04-24 12:28:00,
2013-04-24 07:29:00,45.4,43.8,29.88,NNW,330,0.0,0.0,94,0.00,,,0.63,Wunderground v.1.15,2013-04-24 12:29:00,
2013-04-24 07:30:00,45.4,43.8,29.87,NW,326,0.0,0.0,94,0.00,,,0.63,Wunderground v.1.15,2013-04-24 12:30:00,
2013-04-24 07:32:00,45.3,43.7,29.87,WNW,294,2.0,4.0,94,0.00,,,0.63,Wunderground v.1.15,2013-04-24 12:32:00,
2013-04-24 07:33:00,45.3,43.7,29.87,WNW,293,0.0,0.0,94,0.00,,,0.63,Wunderground v.1.15,2013-04-24 12:33:00,
2013-04-24 07:34:00,45.2,43.6,29.87,WNW,292,0.0,0.0,94,0.00,,,0.63,Wunderground v.1.15,2013-04-24 12:34:00,
2013-04-24 07:35:00,45.2,43.6,29.86,North,10,5.0,11.0,94,0.00,,,0.64,Wunderground v.1.15,2013-04-24 12:35:00,
2013-04-24 07:37:00,45.0,43.4,29.86,WNW,302,0.0,11.0,94,0.00,,,0.64,Wunderground v.1.15,2013-04-24 12:37:00,
2013-04-24 07:38:00,45.0,43.4,29.86,WNW,302,0.0,11.0,94,0.00,,,0.64,Wunderground v.1.15,2013-04-24 12:38:00,
2013-04-24 07:39:00,45.0,43.4,29.86,WNW,302,0.0,11.0,94,0.00,,,0.64,Wunderground v.1.15,2013-04-24 12:39:00,
2013-04-24 07:41:00,44.9,43.3,29.85,WNW,302,0.0,11.0,94,0.00,,,0.64,Wunderground v.1.15,2013-04-24 12:41:00,
2013-04-24 07:42:00,44.9,43.3,29.85,WNW,290,3.0,11.0,94,0.00,,,0.64,Wunderground v.1.15,2013-04-24 12:42:00,
2013-04-24 07:44:00,44.8,43.2,29.85,NE,34,4.0,4.0,94,0.00,,,0.64,Wunderground v.1.15,2013-04-24 12:44:00,
2013-04-24 07:46:00,44.8,43.2,29.85,NW,321,0.0,4.0,94,0.00,,,0.64,Wunderground v.1.15,2013-04-24 12:46:00,
2013-04-24 07:47:00,44.8,43.2,29.86,NW,319,0.0,4.0,94,0.00,,,0.64,Wunderground v.1.15,2013-04-24 12:47:00,
2013-04-24 07:49:00,44.8,43.2,29.86,NW,309,0.0,4.0,94,0.00,,,0.64,Wunderground v.1.15,2013-04-24 12:49:00,
2013-04-24 07:50:00,44.8,43.2,29.85,NW,318,0.0,4.0,94,0.00,,,0.64,Wunderground v.1.15,2013-04-24 12:50:00,
2013-04-24 07:51:00,44.7,43.1,29.85,WNW,298,4.0,6.0,94,0.00,,,0.64,Wunderground v.1.15,2013-04-24 12:51:00,
2013-04-24 07:52:00,44.7,43.1,29.85,WNW,299,1.0,6.0,94,0.00,,,0.64,Wunderground v.1.15,2013-04-24 12:52:00,
2013-04-24 07:53:00,44.7,43.1,29.85,WNW,298,3.0,3.0,94,0.00,,,0.64,Wunderground v.1.15,2013-04-24 12:53:00,
2013-04-24 07:54:00,44.6,43.0,29.85,WNW,298,0.0,3.0,94,0.00,,,0.64,Wunderground v.1.15,2013-04-24 12:54:00,
2013-04-24 07:55:00,44.6,43.0,29.85,WNW,298,0.0,3.0,94,0.00,,,0.64,Wunderground v.1.15,2013-04-24 12:55:00,
2013-04-24 07:56:00,44.6,43.0,29.85,WNW,299,2.0,3.0,94,0.00,,,0.64,Wunderground v.1.15,2013-04-24 12:56:00,
2013-04-24 07:58:00,44.5,42.9,29.85,WNW,299,0.0,3.0,94,0.00,,,0.64,Wunderground v.1.15,2013-04-24 12:58:00,
2013-04-24 07:59:00,44.5,42.9,29.86,WNW,299,0.0,3.0,94,0.00,,,0.64,Wunderground v.1.15,2013-04-24 12:59:00,
2013-04-24 08:01:00,44.5,42.9,29.87,WNW,299,0.0,6.0,94,0.00,,,0.64,Wunderground v.1.15,2013-04-24 13:01:00,
2013-04-24 08:02:00,44.5,42.9,29.87,WNW,291,3.0,6.0,94,0.00,,,0.64,Wunderground v.1.15,2013-04-24 13:02:00,
2013-04-24 08:03:00,44.5,42.9,29.88,WNW,294,0.0,1.0,94,0.00,,,0.64,Wunderground v.1.15,2013-04-24 13:03:00,
2013-04-24 08:04:00,44.5,42.9,29.87,WNW,294,2.0,2.0,94,0.00,,,0.64,Wunderground v.1.15,2013-04-24 13:04:00,
2013-04-24 08:06:00,44.5,42.9,29.87,WNW,291,1.0,4.0,94,0.00,,,0.64,Wunderground v.1.15,2013-04-24 13:06:00,
2013-04-24 08:07:00,44.4,42.8,29.86,North,9,0.0,4.0,94,0.00,,,0.64,Wunderground v.1.15,2013-04-24 13:07:00,
2013-04-24 08:09:00,44.3,42.7,29.86,WNW,300,3.0,8.0,94,0.00,,,0.64,Wunderground v.1.15,2013-04-24 13:09:00,
2013-04-24 08:10:00,44.3,42.7,29.85,NNE,21,2.0,8.0,94,0.00,,,0.64,Wunderground v.1.15,2013-04-24 13:10:00,
2013-04-24 08:11:00,44.2,42.6,29.85,North,9,0.0,8.0,94,0.00,,,0.64,Wunderground v.1.15,2013-04-24 13:11:00,
2013-04-24 08:13:00,44.2,42.6,29.86,West,281,2.0,8.0,94,0.00,,,0.64,Wunderground v.1.15,2013-04-24 13:13:00,
2013-04-24 08:14:00,44.1,42.5,29.86,WNW,284,0.0,2.0,94,0.00,,,0.64,Wunderground v.1.15,2013-04-24 13:14:00,
2013-04-24 08:15:00,44.1,42.5,29.88,WNW,290,2.0,3.0,94,0.00,,,0.64,Wunderground v.1.15,2013-04-24 13:15:00,
2013-04-24 08:16:00,44.1,42.5,29.89,NW,307,4.0,5.0,94,0.00,,,0.64,Wunderground v.1.15,2013-04-24 13:16:00,
2013-04-24 08:18:00,44.1,42.5,29.89,NW,308,0.0,5.0,94,0.00,,,0.64,Wunderground v.1.15,2013-04-24 13:18:00,
2013-04-24 08:19:00,44.1,42.5,29.89,NW,309,3.0,6.0,94,0.00,,,0.64,Wunderground v.1.15,2013-04-24 13:19:00,
2013-04-24 08:20:00,44.2,42.6,29.89,NW,304,2.0,6.0,94,0.00,,,0.64,Wunderground v.1.15,2013-04-24 13:20:00,
2013-04-24 08:21:00,44.1,42.5,29.88,NW,304,2.0,6.0,94,0.00,,,0.64,Wunderground v.1.15,2013-04-24 13:21:00,
2013-04-24 08:22:00,44.1,42.5,29.88,WNW,303,0.0,6.0,94,0.00,,,0.64,Wunderground v.1.15,2013-04-24 13:22:00,
2013-04-24 08:23:00,44.1,42.5,29.88,WNW,301,0.0,1.0,94,0.00,,,0.64,Wunderground v.1.15,2013-04-24 13:23:00,
2013-04-24 08:25:00,44.1,42.5,29.88,WNW,301,0.0,4.0,94,0.00,,,0.64,Wunderground v.1.15,2013-04-24 13:25:00,
2013-04-24 08:26:00,44.2,42.6,29.88,WNW,300,0.0,4.0,94,0.00,,,0.64,Wunderground v.1.15,2013-04-24 13:26:00,
2013-04-24 08:27:00,44.1,42.5,29.88,WNW,300,3.0,4.0,94,0.00,,,0.64,Wunderground v.1.15,2013-04-24 13:27:00,
2013-04-24 08:28:00,44.2,42.6,29.88,WNW,301,0.0,4.0,94,0.00,,,0.64,Wunderground v.1.15,2013-04-24 13:28:00,
2013-04-24 08:30:00,44.2,42.6,29.89,WNW,301,0.0,4.0,94,0.00,,,0.64,Wunderground v.1.15,2013-04-24 13:30:00,
2013-04-24 08:31:00,44.1,42.5,29.89,WNW,297,2.0,5.0,94,0.00,,,0.65,Wunderground v.1.15,2013-04-24 13:31:00,
2013-04-24 08:33:00,44.1,42.5,29.89,WNW,297,0.0,1.0,94,0.00,,,0.65,Wunderground v.1.15,2013-04-24 13:33:00,
2013-04-24 08:35:00,44.1,42.5,29.89,NW,304,0.0,5.0,94,0.00,,,0.65,Wunderground v.1.15,2013-04-24 13:35:00,
2013-04-24 08:36:00,44.1,42.5,29.89,WNW,286,3.0,5.0,94,0.00,,,0.65,Wunderground v.1.15,2013-04-24 13:36:00,
2013-04-24 08:38:00,44.1,42.5,29.89,WNW,298,2.0,5.0,94,0.00,,,0.65,Wunderground v.1.15,2013-04-24 13:38:00,
2013-04-24 08:39:00,44.1,42.5,29.89,WNW,298,2.0,5.0,94,0.00,,,0.65,Wunderground v.1.15,2013-04-24 13:39:00,
2013-04-24 08:41:00,44.1,42.5,29.89,WNW,298,4.0,5.0,94,0.00,,,0.65,Wunderground v.1.15,2013-04-24 13:41:00,
2013-04-24 08:42:00,44.0,42.4,29.89,WNW,300,0.0,5.0,94,0.00,,,0.65,Wunderground v.1.15,2013-04-24 13:42:00,
2013-04-24 08:44:00,44.0,42.4,29.90,WNW,300,0.0,2.0,94,0.00,,,0.65,Wunderground v.1.15,2013-04-24 13:44:00,
2013-04-24 08:46:00,44.0,42.4,29.90,WNW,302,0.0,5.0,94,0.00,,,0.65,Wunderground v.1.15,2013-04-24 13:46:00,
2013-04-24 08:47:00,44.0,42.4,29.90,NW,304,0.0,5.0,94,0.00,,,0.65,Wunderground v.1.15,2013-04-24 13:47:00,
2013-04-24 08:49:00,44.0,42.4,29.90,NW,304,0.0,5.0,94,0.00,,,0.65,Wunderground v.1.15,2013-04-24 13:49:00,
2013-04-24 08:50:00,44.0,42.4,29.90,NW,304,0.0,5.0,94,0.00,,,0.65,Wunderground v.1.15,2013-04-24 13:50:00,
2013-04-24 08:52:00,44.0,42.4,29.91,NW,317,0.0,5.0,94,0.00,,,0.65,Wunderground v.1.15,2013-04-24 13:52:00,
2013-04-24 08:53:00,43.9,42.3,29.91,NNE,17,0.0,5.0,94,0.00,,,0.65,Wunderground v.1.15,2013-04-24 13:53:00,
2013-04-24 08:54:00,44.0,42.4,29.91,NNE,17,0.0,1.0,94,0.00,,,0.65,Wunderground v.1.15,2013-04-24 13:54:00,
2013-04-24 08:55:00,44.0,42.4,29.91,North,355,0.0,1.0,94,0.00,,,0.65,Wunderground v.1.15,2013-04-24 13:55:00,
2013-04-24 08:57:00,44.0,42.4,29.91,North,355,0.0,2.0,94,0.00,,,0.65,Wunderground v.1.15,2013-04-24 13:57:00,
2013-04-24 08:58:00,44.0,42.4,29.92,NNW,332,0.0,2.0,94,0.00,,,0.65,Wunderground v.1.15,2013-04-24 13:58:00,
2013-04-24 08:59:00,44.0,42.4,29.92,NNW,332,0.0,2.0,94,0.00,,,0.65,Wunderground v.1.15,2013-04-24 13:59:00,
2013-04-24 09:00:00,44.0,42.4,29.92,NNW,332,0.0,2.0,94,0.00,,,0.65,Wunderground v.1.15,2013-04-24 14:00:00,
2013-04-24 09:02:00,43.9,42.3,29.92,NW,317,7.0,8.0,94,0.00,,,0.65,Wunderground v.1.15,2013-04-24 14:02:00,
2013-04-24 09:03:00,43.8,42.2,29.92,NW,307,0.0,7.0,94,0.00,,,0.65,Wunderground v.1.15,2013-04-24 14:03:00,
2013-04-24 09:05:00,43.6,42.0,29.92,WNW,298,3.0,9.0,94,0.00,,,0.65,Wunderground v.1.15,2013-04-24 14:05:00,
2013-04-24 09:06:00,43.6,42.0,29.92,WNW,298,4.0,9.0,94,0.00,,,0.65,Wunderground v.1.15,2013-04-24 14:06:00,
2013-04-24 09:08:00,43.4,41.8,29.93,NNW,340,3.0,9.0,94,0.00,,,0.65,Wunderground v.1.15,2013-04-24 14:08:00,
2013-04-24 09:10:00,43.3,41.7,29.93,West,267,1.0,9.0,94,0.00,,,0.65,Wunderground v.1.15,2013-04-24 14:10:00,
2013-04-24 09:11:00,43.2,41.6,29.93,NW,309,0.0,9.0,94,0.00,,,0.65,Wunderground v.1.15,2013-04-24 14:11:00,
2013-04-24 09:14:00,43.1,41.5,29.94,NE,36,2.0,3.0,94,0.00,,,0.65,Wunderground v.1.15,2013-04-24 14:14:00,
2013-04-24 09:15:00,43.1,41.5,29.94,WNW,300,2.0,5.0,94,0.00,,,0.65,Wunderground v.1.15,2013-04-24 14:15:00,
2013-04-24 09:16:00,43.1,41.5,29.94,NW,319,4.0,5.0,94,0.00,,,0.65,Wunderground v.1.15,2013-04-24 14:16:00,
2013-04-24 09:20:00,43.1,41.5,29.94,NNW,341,3.0,5.0,94,0.00,,,0.65,Wunderground v.1.15,2013-04-24 14:20:00,
2013-04-24 09:21:00,43.0,41.4,29.94,NW,325,0.0,6.0,94,0.00,,,0.65,Wunderground v.1.15,2013-04-24 14:21:00,
2013-04-24 09:22:00,43.1,41.5,29.94,NW,325,0.0,6.0,94,0.00,,,0.65,Wunderground v.1.15,2013-04-24 14:22:00,
2013-04-24 09:25:00,43.1,41.5,29.94,NW,318,2.0,3.0,94,0.00,,,0.65,Wunderground v.1.15,2013-04-24 14:25:00,
2013-04-24 09:26:00,43.1,41.5,29.93,NW,318,1.0,3.0,94,0.00,,,0.65,Wunderground v.1.15,2013-04-24 14:26:00,
2013-04-24 09:27:00,43.1,41.5,29.94,West,277,5.0,5.0,94,0.00,,,0.65,Wunderground v.1.15,2013-04-24 14:27:00,
2013-04-24 09:30:00,43.3,41.7,29.94,NNW,332,0.0,7.0,94,0.00,,,0.65,Wunderground v.1.15,2013-04-24 14:30:00,
2013-04-24 09:31:00,43.3,41.7,29.94,NNW,339,0.0,7.0,94,0.00,,,0.65,Wunderground v.1.15,2013-04-24 14:31:00,
2013-04-24 09:32:00,43.3,41.7,29.94,NNW,340,0.0,7.0,94,0.00,,,0.65,Wunderground v.1.15,2013-04-24 14:32:00,
2013-04-24 09:33:00,43.3,41.7,29.94,NNW,340,0.0,2.0,94,0.00,,,0.65,Wunderground v.1.15,2013-04-24 14:33:00,
2013-04-24 09:36:00,43.3,41.7,29.94,NW,323,0.0,4.0,94,0.00,,,0.65,Wunderground v.1.15,2013-04-24 14:36:00,
2013-04-24 09:37:00,43.2,41.6,29.94,WNW,302,7.0,9.0,94,0.00,,,0.65,Wunderground v.1.15,2013-04-24 14:37:00,
2013-04-24 09:38:00,43.2,41.3,29.94,NNE,26,2.0,9.0,93,0.00,,,0.65,Wunderground v.1.15,2013-04-24 14:38:00,
2013-04-24 09:42:00,43.2,41.6,29.94,NE,38,0.0,9.0,94,0.00,,,0.65,Wunderground v.1.15,2013-04-24 14:42:00,
2013-04-24 09:43:00,43.2,41.3,29.94,NE,38,0.0,9.0,93,0.00,,,0.65,Wunderground v.1.15,2013-04-24 14:43:00,
2013-04-24 09:47:00,43.4,41.8,29.95,West,275,0.0,2.0,94,0.00,,,0.65,Wunderground v.1.15,2013-04-24 14:47:00,
2013-04-24 09:48:00,43.5,41.9,29.95,NNE,21,4.0,5.0,94,0.00,,,0.65,Wunderground v.1.15,2013-04-24 14:48:00,
2013-04-24 09:49:00,43.5,41.9,29.95,NNE,27,4.0,5.0,94,0.00,,,0.65,Wunderground v.1.15,2013-04-24 14:49:00,
2013-04-24 09:52:00,43.5,41.6,29.95,North,11,0.0,6.0,93,0.00,,,0.65,Wunderground v.1.15,2013-04-24 14:52:00,
2013-04-24 09:53:00,43.6,41.7,29.95,North,11,0.0,1.0,93,0.00,,,0.65,Wunderground v.1.15,2013-04-24 14:53:00,
2013-04-24 09:54:00,43.6,41.7,29.95,North,9,0.0,1.0,93,0.00,,,0.65,Wunderground v.1.15,2013-04-24 14:54:00,
2013-04-24 09:57:00,43.9,42.3,29.95,NW,316,4.0,6.0,94,0.00,,,0.65,Wunderground v.1.15,2013-04-24 14:57:00,
2013-04-24 09:59:00,44.0,42.4,29.95,NNW,338,0.0,6.0,94,0.00,,,0.65,Wunderground v.1.15,2013-04-24 14:59:00,
2013-04-24 10:00:00,44.0,42.4,29.95,NW,310,4.0,8.0,94,0.00,,,0.65,Wunderground v.1.15,2013-04-24 15:00:00,
2013-04-24 10:02:00,44.1,42.5,29.95,NNW,331,2.0,8.0,94,0.00,,,0.65,Wunderground v.1.15,2013-04-24 15:02:00,
2013-04-24 10:04:00,44.3,42.4,29.96,NNW,329,0.0,1.0,93,0.00,,,0.65,Wunderground v.1.15,2013-04-24 15:04:00,
2013-04-24 10:05:00,44.3,42.4,29.96,NNW,329,0.0,1.0,93,0.00,,,0.65,Wunderground v.1.15,2013-04-24 15:05:00,
2013-04-24 10:10:00,44.5,42.6,29.96,North,355,3.0,3.0,93,0.00,,,0.65,Wunderground v.1.15,2013-04-24 15:10:00,
2013-04-24 10:11:00,44.5,42.6,29.96,NW,313,2.0,4.0,93,0.00,,,0.65,Wunderground v.1.15,2013-04-24 15:11:00,
2013-04-24 10:15:00,44.4,42.2,29.97,NNW,329,0.0,1.0,92,0.00,,,0.65,Wunderground v.1.15,2013-04-24 15:15:00,
2013-04-24 10:16:00,44.3,42.1,29.97,NW,311,0.0,4.0,92,0.00,,,0.65,Wunderground v.1.15,2013-04-24 15:16:00,
2013-04-24 10:20:00,44.3,42.1,29.96,NW,326,0.0,4.0,92,0.00,,,0.65,Wunderground v.1.15,2013-04-24 15:20:00,
2013-04-24 10:21:00,44.3,42.1,29.96,NNW,327,0.0,4.0,92,0.00,,,0.65,Wunderground v.1.15,2013-04-24 15:21:00,
2013-04-24 10:25:00,44.4,41.9,29.96,NE,37,0.0,2.0,91,0.00,,,0.65,Wunderground v.1.15,2013-04-24 15:25:00,
2013-04-24 10:26:00,44.4,41.9,29.96,NNW,330,0.0,2.0,91,0.00,,,0.65,Wunderground v.1.15,2013-04-24 15:26:00,
2013-04-24 10:27:00,44.3,41.8,29.96,NNW,330,0.0,2.0,91,0.00,,,0.65,Wunderground v.1.15,2013-04-24 15:27:00,
2013-04-24 10:30:00,44.4,41.9,29.96,NNW,333,0.0,3.0,91,0.00,,,0.65,Wunderground v.1.15,2013-04-24 15:30:00,
2013-04-24 10:31:00,44.5,42.0,29.96,NNW,333,0.0,3.0,91,0.00,,,0.65,Wunderground v.1.15,2013-04-24 15:31:00,
2013-04-24 10:32:00,44.5,42.0,29.96,NNW,344,3.0,3.0,91,0.00,,,0.65,Wunderground v.1.15,2013-04-24 15:32:00,
2013-04-24 10:35:00,44.6,41.8,29.96,NW,325,0.0,6.0,90,0.00,,,0.65,Wunderground v.1.15,2013-04-24 15:35:00,
2013-04-24 10:36:00,44.6,41.8,29.96,NW,325,0.0,6.0,90,0.00,,,0.65,Wunderground v.1.15,2013-04-24 15:36:00,
2013-04-24 10:37:00,44.6,41.8,29.96,North,355,2.0,6.0,90,0.00,,,0.65,Wunderground v.1.15,2013-04-24 15:37:00,
2013-04-24 10:38:00,44.5,41.7,29.96,NNW,336,0.0,6.0,90,0.00,,,0.65,Wunderground v.1.15,2013-04-24 15:38:00,
2013-04-24 10:41:00,44.6,41.8,29.96,West,281,3.0,6.0,90,0.00,,,0.65,Wunderground v.1.15,2013-04-24 15:41:00,
2013-04-24 10:42:00,44.6,41.6,29.97,NW,326,0.0,6.0,89,0.00,,,0.65,Wunderground v.1.15,2013-04-24 15:42:00,
2013-04-24 10:43:00,44.7,41.9,29.97,NW,325,0.0,1.0,90,0.00,,,0.65,Wunderground v.1.15,2013-04-24 15:43:00,
2013-04-24 10:44:00,44.7,41.9,29.97,NNW,327,0.0,1.0,90,0.00,,,0.65,Wunderground v.1.15,2013-04-24 15:44:00,
2013-04-24 10:46:00,44.7,41.9,29.97,NNW,327,2.0,3.0,90,0.00,,,0.65,Wunderground v.1.15,2013-04-24 15:46:00,
2013-04-24 10:48:00,44.7,41.9,29.97,North,350,0.0,4.0,90,0.00,,,0.65,Wunderground v.1.15,2013-04-24 15:48:00,
2013-04-24 10:50:00,44.8,42.0,29.97,NW,318,2.0,4.0,90,0.00,,,0.65,Wunderground v.1.15,2013-04-24 15:50:00,
2013-04-24 10:51:00,44.9,42.1,29.97,NW,318,0.0,4.0,90,0.00,,,0.65,Wunderground v.1.15,2013-04-24 15:51:00,
2013-04-24 10:54:00,45.0,42.5,29.97,NW,318,0.0,1.0,91,0.00,,,0.65,Wunderground v.1.15,2013-04-24 15:54:00,
2013-04-24 10:55:00,45.0,42.5,29.97,NW,318,0.0,1.0,91,0.00,,,0.65,Wunderground v.1.15,2013-04-24 15:55:00,
2013-04-24 10:56:00,45.0,42.5,29.97,NW,318,0.0,1.0,91,0.00,,,0.65,Wunderground v.1.15,2013-04-24 15:56:00,
2013-04-24 10:58:00,45.0,42.5,29.98,NW,318,0.0,1.0,91,0.00,,,0.65,Wunderground v.1.15,2013-04-24 15:58:00,
2013-04-24 10:59:00,45.0,42.5,29.98,NW,318,0.0,1.0,91,0.00,,,0.65,Wunderground v.1.15,2013-04-24 15:59:00,
2013-04-24 11:00:00,45.0,42.5,29.98,NW,318,0.0,1.0,91,0.00,,,0.65,Wunderground v.1.15,2013-04-24 16:00:00,
2013-04-24 11:02:00,45.1,42.6,29.98,NNW,335,0.0,3.0,91,0.00,,,0.65,Wunderground v.1.15,2013-04-24 16:02:00,
2013-04-24 11:03:00,45.2,42.7,29.98,NNW,334,0.0,0.0,91,0.00,,,0.65,Wunderground v.1.15,2013-04-24 16:03:00,
2013-04-24 11:05:00,45.2,42.7,29.98,NNW,334,0.0,0.0,91,0.00,,,0.65,Wunderground v.1.15,2013-04-24 16:05:00,
2013-04-24 11:07:00,45.3,42.8,29.98,NW,325,1.0,2.0,91,0.00,,,0.65,Wunderground v.1.15,2013-04-24 16:07:00,
2013-04-24 11:09:00,45.2,42.4,29.98,WSW,243,0.0,6.0,90,0.00,,,0.65,Wunderground v.1.15,2013-04-24 16:09:00,
2013-04-24 11:10:00,45.2,42.4,29.98,WSW,243,0.0,6.0,90,0.00,,,0.65,Wunderground v.1.15,2013-04-24 16:10:00,
2013-04-24 11:12:00,45.3,42.5,29.98,WNW,296,0.0,6.0,90,0.00,,,0.65,Wunderground v.1.15,2013-04-24 16:12:00,
2013-04-24 11:13:00,45.4,42.9,29.98,WNW,296,0.0,1.0,91,0.00,,,0.65,Wunderground v.1.15,2013-04-24 16:13:00,
2013-04-24 11:15:00,45.5,43.0,29.99,WNW,296,0.0,1.0,91,0.00,,,0.65,Wunderground v.1.15,2013-04-24 16:15:00,
2013-04-24 11:16:00,45.6,43.1,29.99,WNW,297,0.0,1.0,91,0.00,,,0.65,Wunderground v.1.15,2013-04-24 16:16:00,
2013-04-24 11:17:00,45.6,43.1,29.98,NNE,22,0.0,4.0,91,0.00,,,0.65,Wunderground v.1.15,2013-04-24 16:17:00,
2013-04-24 11:20:00,45.7,42.9,29.99,NNE,25,0.0,4.0,90,0.00,,,0.65,Wunderground v.1.15,2013-04-24 16:20:00,
2013-04-24 11:21:00,45.7,42.9,29.99,North,355,0.0,4.0,90,0.00,,,0.65,Wunderground v.1.15,2013-04-24 16:21:00,
2013-04-24 11:22:00,45.8,43.0,29.99,NNW,327,0.0,4.0,90,0.00,,,0.65,Wunderground v.1.15,2013-04-24 16:22:00,
2013-04-24 11:26:00,45.8,42.7,29.99,NW,322,0.0,3.0,89,0.00,,,0.65,Wunderground v.1.15,2013-04-24 16:26:00,
2013-04-24 11:27:00,45.8,42.7,29.99,NW,321,1.0,4.0,89,0.00,,,0.65,Wunderground v.1.15,2013-04-24 16:27:00,
2013-04-24 11:28:00,45.8,42.7,29.99,NW,321,0.0,4.0,89,0.00,,,0.65,Wunderground v.1.15,2013-04-24 16:28:00,
2013-04-24 11:31:00,46.0,43.2,29.99,NW,321,0.0,4.0,90,0.00,,,0.65,Wunderground v.1.15,2013-04-24 16:31:00,
2013-04-24 11:32:00,46.0,42.9,29.99,North,360,0.0,8.0,89,0.00,,,0.65,Wunderground v.1.15,2013-04-24 16:32:00,
2013-04-24 11:33:00,46.0,42.6,29.99,NW,322,0.0,1.0,88,0.00,,,0.65,Wunderground v.1.15,2013-04-24 16:33:00,
2013-04-24 11:34:00,45.9,42.5,29.99,NW,321,0.0,2.0,88,0.00,,,0.65,Wunderground v.1.15,2013-04-24 16:34:00,
2013-04-24 11:36:00,45.9,42.5,29.99,NW,321,0.0,2.0,88,0.00,,,0.65,Wunderground v.1.15,2013-04-24 16:36:00,
2013-04-24 11:37:00,45.9,42.5,29.99,NNE,13,4.0,5.0,88,0.00,,,0.65,Wunderground v.1.15,2013-04-24 16:37:00,
2013-04-24 11:38:00,46.0,42.6,29.99,NW,307,3.0,5.0,88,0.00,,,0.65,Wunderground v.1.15,2013-04-24 16:38:00,
2013-04-24 11:39:00,45.9,42.5,29.99,WNW,302,1.0,5.0,88,0.00,,,0.65,Wunderground v.1.15,2013-04-24 16:39:00,
2013-04-24 11:40:00,45.9,42.2,29.99,WNW,300,1.0,5.0,87,0.00,,,0.65,Wunderground v.1.15,2013-04-24 16:40:00,
2013-04-24 11:41:00,45.9,42.2,29.99,WNW,289,3.0,5.0,87,0.00,,,0.65,Wunderground v.1.15,2013-04-24 16:41:00,
2013-04-24 11:42:00,45.8,42.2,29.99,WNW,288,0.0,5.0,87,0.00,,,0.65,Wunderground v.1.15,2013-04-24 16:42:00,
2013-04-24 11:44:00,45.8,42.2,29.99,WNW,289,0.0,1.0,87,0.00,,,0.65,Wunderground v.1.15,2013-04-24 16:44:00,
2013-04-24 11:45:00,45.9,42.2,29.99,NNW,333,0.0,6.0,87,0.00,,,0.65,Wunderground v.1.15,2013-04-24 16:45:00,
2013-04-24 11:46:00,45.9,42.2,30.00,NW,321,0.0,6.0,87,0.00,,,0.65,Wunderground v.1.15,2013-04-24 16:46:00,
2013-04-24 11:47:00,45.9,42.2,30.00,NW,321,0.0,6.0,87,0.00,,,0.65,Wunderground v.1.15,2013-04-24 16:47:00,
2013-04-24 11:48:00,46.0,42.3,30.00,NW,315,2.0,6.0,87,0.00,,,0.65,Wunderground v.1.15,2013-04-24 16:48:00,
2013-04-24 11:49:00,45.9,41.9,30.00,NW,315,2.0,6.0,86,0.00,,,0.65,Wunderground v.1.15,2013-04-24 16:49:00,
2013-04-24 11:51:00,46.0,42.0,30.00,NW,313,0.0,6.0,86,0.00,,,0.65,Wunderground v.1.15,2013-04-24 16:51:00,
2013-04-24 11:52:00,45.9,41.9,30.00,NW,313,2.0,6.0,86,0.00,,,0.65,Wunderground v.1.15,2013-04-24 16:52:00,
2013-04-24 11:54:00,45.9,41.9,30.00,NW,306,0.0,2.0,86,0.00,,,0.65,Wunderground v.1.15,2013-04-24 16:54:00,
2013-04-24 11:55:00,46.0,42.0,30.00,NNE,30,3.0,6.0,86,0.00,,,0.65,Wunderground v.1.15,2013-04-24 16:55:00,
2013-04-24 11:57:00,46.0,42.0,30.00,NNW,332,0.0,6.0,86,0.00,,,0.65,Wunderground v.1.15,2013-04-24 16:57:00,
2013-04-24 11:59:00,46.0,42.3,30.00,NW,315,0.0,6.0,87,0.00,,,0.65,Wunderground v.1.15,2013-04-24 16:59:00,
2013-04-24 12:00:00,46.0,42.3,30.00,NW,316,0.0,6.0,87,0.00,,,0.65,Wunderground v.1.15,2013-04-24 17:00:00,
2013-04-24 12:02:00,46.0,42.3,30.00,NW,315,0.0,6.0,87,0.00,,,0.65,Wunderground v.1.15,2013-04-24 17:02:00,
2013-04-24 12:03:00,46.0,42.3,30.00,NW,315,3.0,3.0,87,0.00,,,0.65,Wunderground v.1.15,2013-04-24 17:03:00,
2013-04-24 12:04:00,46.0,42.0,30.00,North,5,1.0,6.0,86,0.00,,,0.65,Wunderground v.1.15,2013-04-24 17:04:00,
2013-04-24 12:06:00,45.9,41.9,30.00,North,11,0.0,6.0,86,0.00,,,0.65,Wunderground v.1.15,2013-04-24 17:06:00,
2013-04-24 12:07:00,46.0,42.3,30.00,North,11,0.0,6.0,87,0.00,,,0.65,Wunderground v.1.15,2013-04-24 17:07:00,
2013-04-24 12:09:00,46.0,42.3,30.00,NNW,346,0.0,6.0,87,0.00,,,0.65,Wunderground v.1.15,2013-04-24 17:09:00,
2013-04-24 12:10:00,46.0,42.3,30.00,North,10,0.0,6.0,87,0.00,,,0.65,Wunderground v.1.15,2013-04-24 17:10:00,
2013-04-24 12:11:00,46.0,42.3,30.00,ESE,121,0.0,6.0,87,0.00,,,0.65,Wunderground v.1.15,2013-04-24 17:11:00,
2013-04-24 12:13:00,46.1,42.4,30.00,NNE,25,3.0,3.0,87,0.00,,,0.65,Wunderground v.1.15,2013-04-24 17:13:00,
2013-04-24 12:14:00,46.1,42.4,30.00,North,10,1.0,4.0,87,0.00,,,0.65,Wunderground v.1.15,2013-04-24 17:14:00,
2013-04-24 12:15:00,46.1,42.1,30.00,NNW,348,0.0,4.0,86,0.00,,,0.65,Wunderground v.1.15,2013-04-24 17:15:00,
2013-04-24 12:16:00,46.1,41.8,30.00,NNW,348,2.0,4.0,85,0.00,,,0.65,Wunderground v.1.15,2013-04-24 17:16:00,
2013-04-24 12:19:00,46.2,42.2,30.00,NNW,340,0.0,4.0,86,0.00,,,0.65,Wunderground v.1.15,2013-04-24 17:19:00,
2013-04-24 12:20:00,46.3,42.3,30.00,NNE,22,0.0,4.0,86,0.00,,,0.65,Wunderground v.1.15,2013-04-24 17:20:00,
2013-04-24 12:21:00,46.4,42.7,30.00,East,99,0.0,4.0,87,0.00,,,0.65,Wunderground v.1.15,2013-04-24 17:21:00,
2013-04-24 12:22:00,46.5,42.5,30.00,ENE,57,0.0,4.0,86,0.00,,,0.65,Wunderground v.1.15,2013-04-24 17:22:00,
2013-04-24 12:24:00,46.7,42.7,30.00,NE,36,0.0,1.0,86,0.00,,,0.65,Wunderground v.1.15,2013-04-24 17:24:00,
2013-04-24 12:26:00,46.7,42.7,30.00,NNW,337,0.0,1.0,86,0.00,,,0.65,Wunderground v.1.15,2013-04-24 17:26:00,
2013-04-24 12:27:00,46.8,42.8,30.00,NNW,338,0.0,1.0,86,0.00,,,0.65,Wunderground v.1.15,2013-04-24 17:27:00,
2013-04-24 12:29:00,46.9,42.6,30.00,WNW,283,2.0,5.0,85,0.00,,,0.65,Wunderground v.1.15,2013-04-24 17:29:00,
2013-04-24 12:30:00,46.9,42.6,30.00,WNW,288,2.0,5.0,85,0.00,,,0.65,Wunderground v.1.15,2013-04-24 17:30:00,
2013-04-24 12:31:00,47.0,42.7,30.00,WNW,284,0.0,5.0,85,0.00,,,0.65,Wunderground v.1.15,2013-04-24 17:31:00,
2013-04-24 12:32:00,46.9,42.6,30.00,WNW,284,2.0,5.0,85,0.00,,,0.65,Wunderground v.1.15,2013-04-24 17:32:00,
2013-04-24 12:35:00,46.9,42.3,30.00,NNW,329,1.0,3.0,84,0.00,,,0.65,Wunderground v.1.15,2013-04-24 17:35:00,
2013-04-24 12:36:00,47.0,42.4,30.00,WNW,298,3.0,3.0,84,0.00,,,0.65,Wunderground v.1.15,2013-04-24 17:36:00,
2013-04-24 12:37:00,47.0,42.4,30.00,WNW,298,5.0,5.0,84,0.00,,,0.65,Wunderground v.1.15,2013-04-24 17:37:00,
2013-04-24 12:40:00,46.9,42.3,30.00,NW,305,0.0,5.0,84,0.00,,,0.65,Wunderground v.1.15,2013-04-24 17:40:00,
2013-04-24 12:42:00,46.9,42.3,30.00,NW,307,0.0,5.0,84,0.00,,,0.65,Wunderground v.1.15,2013-04-24 17:42:00,
2013-04-24 12:43:00,46.9,42.3,30.00,NW,308,0.0,1.0,84,0.00,,,0.65,Wunderground v.1.15,2013-04-24 17:43:00,
2013-04-24 12:44:00,47.0,42.7,30.00,NW,308,0.0,1.0,85,0.00,,,0.65,Wunderground v.1.15,2013-04-24 17:44:00,
2013-04-24 12:45:00,47.0,42.4,30.00,NW,308,0.0,1.0,84,0.00,,,0.65,Wunderground v.1.15,2013-04-24 17:45:00,
2013-04-24 12:46:00,47.0,42.4,30.00,NW,308,0.0,1.0,84,0.00,,,0.65,Wunderground v.1.15,2013-04-24 17:46:00,
2013-04-24 12:48:00,47.0,42.4,30.00,NW,313,0.0,4.0,84,0.00,,,0.65,Wunderground v.1.15,2013-04-24 17:48:00,
2013-04-24 12:49:00,47.0,42.4,30.00,North,355,2.0,4.0,84,0.00,,,0.65,Wunderground v.1.15,2013-04-24 17:49:00,
2013-04-24 12:50:00,47.0,42.4,30.00,NNW,331,0.0,5.0,84,0.00,,,0.65,Wunderground v.1.15,2013-04-24 17:50:00,
2013-04-24 12:51:00,47.0,42.1,30.00,WNW,300,0.0,5.0,83,0.00,,,0.65,Wunderground v.1.15,2013-04-24 17:51:00,
2013-04-24 12:53:00,46.9,42.0,30.00,NW,313,0.0,1.0,83,0.00,,,0.65,Wunderground v.1.15,2013-04-24 17:53:00,
2013-04-24 12:54:00,46.9,42.0,30.00,NE,42,2.0,3.0,83,0.00,,,0.65,Wunderground v.1.15,2013-04-24 17:54:00,
2013-04-24 12:56:00,46.9,42.3,30.00,North,10,0.0,3.0,84,0.00,,,0.65,Wunderground v.1.15,2013-04-24 17:56:00,
2013-04-24 12:59:00,46.9,42.0,30.00,NNW,344,0.0,7.0,83,0.00,,,0.65,Wunderground v.1.15,2013-04-24 17:59:00,
2013-04-24 13:00:00,46.9,42.0,30.00,WNW,299,0.0,7.0,83,0.00,,,0.65,Wunderground v.1.15,2013-04-24 18:00:00,
2013-04-24 13:01:00,46.9,42.3,30.00,WNW,298,0.0,7.0,84,0.00,,,0.65,Wunderground v.1.15,2013-04-24 18:01:00,
2013-04-24 13:04:00,46.8,41.9,30.00,NNE,28,0.0,1.0,83,0.00,,,0.65,Wunderground v.1.15,2013-04-24 18:04:00,
2013-04-24 13:05:00,46.9,42.3,30.00,NNE,28,0.0,1.0,84,0.00,,,0.65,Wunderground v.1.15,2013-04-24 18:05:00,
2013-04-24 13:06:00,46.9,42.3,30.00,NNE,28,0.0,1.0,84,0.00,,,0.65,Wunderground v.1.15,2013-04-24 18:06:00,
2013-04-24 13:09:00,47.0,43.0,30.00,NW,310,2.0,3.0,86,0.00,,,0.65,Wunderground v.1.15,2013-04-24 18:09:00,
2013-04-24 13:11:00,47.1,42.8,30.00,NW,310,0.0,3.0,85,0.00,,,0.65,Wunderground v.1.15,2013-04-24 18:11:00,
2013-04-24 13:12:00,47.2,42.6,30.00,NW,310,0.0,3.0,84,0.00,,,0.65,Wunderground v.1.15,2013-04-24 18:12:00,
2013-04-24 13:15:00,47.3,42.7,30.00,NW,310,0.0,0.0,84,0.00,,,0.65,Wunderground v.1.15,2013-04-24 18:15:00,
2013-04-24 13:16:00,47.3,42.7,30.00,NW,310,0.0,0.0,84,0.00,,,0.65,Wunderground v.1.15,2013-04-24 18:16:00,
2013-04-24 13:17:00,47.4,43.1,30.00,NNW,346,3.0,3.0,85,0.00,,,0.65,Wunderground v.1.15,2013-04-24 18:17:00,
2013-04-24 13:18:00,47.4,42.5,30.00,NW,313,0.0,4.0,83,0.00,,,0.65,Wunderground v.1.15,2013-04-24 18:18:00,
2013-04-24 13:20:00,47.4,42.2,30.00,WNW,298,0.0,5.0,82,0.00,,,0.65,Wunderground v.1.15,2013-04-24 18:20:00,
2013-04-24 13:21:00,47.4,42.2,30.00,WNW,298,0.0,5.0,82,0.00,,,0.65,Wunderground v.1.15,2013-04-24 18:21:00,
2013-04-24 13:22:00,47.4,42.2,30.00,WNW,298,0.0,5.0,82,0.00,,,0.65,Wunderground v.1.15,2013-04-24 18:22:00,
2013-04-24 13:23:00,47.4,42.5,30.00,NNE,17,4.0,4.0,83,0.00,,,0.65,Wunderground v.1.15,2013-04-24 18:23:00,
2013-04-24 13:25:00,47.4,42.5,30.00,NW,304,2.0,4.0,83,0.00,,,0.65,Wunderground v.1.15,2013-04-24 18:25:00,
2013-04-24 13:27:00,47.5,42.6,30.00,NW,306,0.0,4.0,83,0.00,,,0.65,Wunderground v.1.15,2013-04-24 18:27:00,
2013-04-24 13:28:00,47.4,42.5,30.00,NW,306,0.0,4.0,83,0.00,,,0.65,Wunderground v.1.15,2013-04-24 18:28:00,
2013-04-24 13:30:00,47.5,42.6,30.00,NW,314,1.0,6.0,83,0.00,,,0.65,Wunderground v.1.15,2013-04-24 18:30:00,
2013-04-24 13:32:00,47.6,42.4,30.00,NNE,22,0.0,6.0,82,0.00,,,0.65,Wunderground v.1.15,2013-04-24 18:32:00,
2013-04-24 13:33:00,47.6,42.7,30.00,NW,323,0.0,2.0,83,0.00,,,0.65,Wunderground v.1.15,2013-04-24 18:33:00,
2013-04-24 13:36:00,47.8,42.9,30.00,NW,316,0.0,2.0,83,0.00,,,0.65,Wunderground v.1.15,2013-04-24 18:36:00,
2013-04-24 13:37:00,48.0,43.1,30.00,NW,314,0.0,2.0,83,0.00,,,0.65,Wunderground v.1.15,2013-04-24 18:37:00,
2013-04-24 13:38:00,48.1,43.8,30.00,NW,313,0.0,2.0,85,0.00,,,0.65,Wunderground v.1.15,2013-04-24 18:38:00,
2013-04-24 13:39:00,48.3,43.7,30.00,North,360,0.0,2.0,84,0.00,,,0.65,Wunderground v.1.15,2013-04-24 18:39:00,
2013-04-24 13:41:00,48.7,43.8,30.00,NW,304,3.0,5.0,83,0.00,,,0.65,Wunderground v.1.15,2013-04-24 18:41:00,
2013-04-24 13:42:00,48.8,42.9,30.00,WSW,238,3.0,5.0,80,0.00,,,0.65,Wunderground v.1.15,2013-04-24 18:42:00,
2013-04-24 13:43:00,48.8,42.6,30.00,WNW,298,0.0,1.0,79,0.00,,,0.65,Wunderground v.1.15,2013-04-24 18:43:00,
2013-04-24 13:44:00,48.8,42.6,30.00,WNW,300,0.0,1.0,79,0.00,,,0.65,Wunderground v.1.15,2013-04-24 18:44:00,
2013-04-24 13:46:00,48.9,42.7,30.00,WSW,244,1.0,5.0,79,0.00,,,0.65,Wunderground v.1.15,2013-04-24 18:46:00,
2013-04-24 13:48:00,48.9,42.3,30.00,WSW,257,0.0,5.0,78,0.00,,,0.65,Wunderground v.1.15,2013-04-24 18:48:00,
2013-04-24 13:49:00,49.0,42.8,30.00,NNW,339,0.0,5.0,79,0.00,,,0.65,Wunderground v.1.15,2013-04-24 18:49:00,
2013-04-24 13:50:00,49.0,42.8,30.00,NW,309,2.0,5.0,79,0.00,,,0.65,Wunderground v.1.15,2013-04-24 18:50:00,
2013-04-24 13:52:00,49.1,42.9,30.00,WNW,303,0.0,5.0,79,0.00,,,0.65,Wunderground v.1.15,2013-04-24 18:52:00,
2013-04-24 13:53:00,49.1,42.5,30.00,NW,320,0.0,2.0,78,0.00,,,0.65,Wunderground v.1.15,2013-04-24 18:53:00,
2013-04-24 13:54:00,49.0,42.1,30.00,NW,320,0.0,2.0,77,0.00,,,0.65,Wunderground v.1.15,2013-04-24 18:54:00,
2013-04-24 13:55:00,49.0,42.1,30.00,NW,319,0.0,2.0,77,0.00,,,0.65,Wunderground v.1.15,2013-04-24 18:55:00,
2013-04-24 13:57:00,49.1,42.5,30.00,NW,317,1.0,4.0,78,0.00,,,0.65,Wunderground v.1.15,2013-04-24 18:57:00,
2013-04-24 13:58:00,49.2,43.0,30.00,NW,317,0.0,4.0,79,0.00,,,0.65,Wunderground v.1.15,2013-04-24 18:58:00,
2013-04-24 14:00:00,49.2,43.0,30.00,NE,40,0.0,4.0,79,0.00,,,0.65,Wunderground v.1.15,2013-04-24 19:00:00,
2013-04-24 14:02:00,49.5,43.6,30.00,NNW,346,0.0,4.0,80,0.00,,,0.65,Wunderground v.1.15,2013-04-24 19:02:00,
2013-04-24 14:04:00,49.8,43.9,30.00,NW,309,3.0,3.0,80,0.00,,,0.65,Wunderground v.1.15,2013-04-24 19:04:00,
2013-04-24 14:05:00,49.9,43.3,30.00,WNW,298,3.0,4.0,78,0.00,,,0.65,Wunderground v.1.15,2013-04-24 19:05:00,
2013-04-24 14:07:00,50.0,42.4,30.00,NNW,340,0.0,4.0,75,0.00,,,0.65,Wunderground v.1.15,2013-04-24 19:07:00,
2013-04-24 14:09:00,50.0,42.0,30.00,WNW,300,4.0,5.0,74,0.00,,,0.65,Wunderground v.1.15,2013-04-24 19:09:00,
2013-04-24 14:10:00,50.0,42.0,30.00,WNW,302,3.0,7.0,74,0.00,,,0.65,Wunderground v.1.15,2013-04-24 19:10:00,
2013-04-24 14:11:00,50.0,42.0,30.00,North,360,3.0,7.0,74,0.00,,,0.65,Wunderground v.1.15,2013-04-24 19:11:00,
2013-04-24 14:12:00,50.0,41.7,30.00,North,355,0.0,7.0,73,0.00,,,0.65,Wunderground v.1.15,2013-04-24 19:12:00,
2013-04-24 14:13:00,50.0,42.7,30.00,NE,49,3.0,3.0,76,0.00,,,0.65,Wunderground v.1.15,2013-04-24 19:13:00,
2013-04-24 14:14:00,50.0,42.4,30.00,NE,51,0.0,3.0,75,0.00,,,0.65,Wunderground v.1.15,2013-04-24 19:14:00,
2013-04-24 14:15:00,50.0,42.0,30.00,NNW,331,0.0,5.0,74,0.00,,,0.65,Wunderground v.1.15,2013-04-24 19:15:00,
2013-04-24 14:16:00,50.0,42.4,30.00,NNW,331,0.0,5.0,75,0.00,,,0.65,Wunderground v.1.15,2013-04-24 19:16:00,
2013-04-24 14:17:00,50.1,42.8,30.00,NNE,24,1.0,5.0,76,0.00,,,0.65,Wunderground v.1.15,2013-04-24 19:17:00,
2013-04-24 14:19:00,50.1,43.5,30.00,North,350,0.0,5.0,78,0.00,,,0.65,Wunderground v.1.15,2013-04-24 19:19:00,
2013-04-24 14:20:00,50.2,43.3,30.00,North,349,0.0,5.0,77,0.00,,,0.65,Wunderground v.1.15,2013-04-24 19:20:00,
2013-04-24 14:22:00,50.3,43.0,30.00,NW,323,2.0,5.0,76,0.00,,,0.65,Wunderground v.1.15,2013-04-24 19:22:00,
2013-04-24 14:24:00,50.4,43.1,30.00,NW,316,2.0,3.0,76,0.00,,,0.65,Wunderground v.1.15,2013-04-24 19:24:00,
2013-04-24 14:25:00,50.4,42.8,30.00,NW,316,0.0,3.0,75,0.00,,,0.65,Wunderground v.1.15,2013-04-24 19:25:00,
2013-04-24 14:26:00,50.4,42.8,30.00,North,360,0.0,3.0,75,0.00,,,0.65,Wunderground v.1.15,2013-04-24 19:26:00,
2013-04-24 14:28:00,50.4,42.8,30.00,NNE,19,1.0,5.0,75,0.00,,,0.65,Wunderground v.1.15,2013-04-24 19:28:00,
2013-04-24 14:30:00,50.5,42.5,30.00,ENE,57,0.0,6.0,74,0.00,,,0.65,Wunderground v.1.15,2013-04-24 19:30:00,
2013-04-24 14:31:00,50.4,41.7,30.00,NNE,17,4.0,9.0,72,0.00,,,0.65,Wunderground v.1.15,2013-04-24 19:31:00,
2013-04-24 14:33:00,50.4,42.8,30.00,WNW,302,2.0,2.0,75,0.00,,,0.65,Wunderground v.1.15,2013-04-24 19:33:00,
2013-04-24 14:34:00,50.4,43.1,30.00,WNW,302,0.0,2.0,76,0.00,,,0.65,Wunderground v.1.15,2013-04-24 19:34:00,
2013-04-24 14:35:00,50.3,42.3,30.00,WNW,302,0.0,4.0,74,0.00,,,0.65,Wunderground v.1.15,2013-04-24 19:35:00,
2013-04-24 14:36:00,50.4,42.8,30.00,North,11,0.0,5.0,75,0.00,,,0.65,Wunderground v.1.15,2013-04-24 19:36:00,
2013-04-24 14:37:00,50.4,42.4,30.00,North,350,1.0,5.0,74,0.00,,,0.65,Wunderground v.1.15,2013-04-24 19:37:00,
2013-04-24 14:38:00,50.4,42.4,30.00,North,355,7.0,7.0,74,0.00,,,0.65,Wunderground v.1.15,2013-04-24 19:38:00,
2013-04-24 14:39:00,50.4,42.8,30.00,NNE,21,0.0,7.0,75,0.00,,,0.65,Wunderground v.1.15,2013-04-24 19:39:00,
2013-04-24 14:40:00,50.4,42.8,30.00,North,5,4.0,7.0,75,0.00,,,0.65,Wunderground v.1.15,2013-04-24 19:40:00,
2013-04-24 14:42:00,50.5,42.2,30.00,NNW,345,0.0,7.0,73,0.00,,,0.65,Wunderground v.1.15,2013-04-24 19:42:00,
2013-04-24 14:43:00,50.5,42.9,29.99,NNW,348,4.0,4.0,75,0.00,,,0.65,Wunderground v.1.15,2013-04-24 19:43:00,
2013-04-24 14:44:00,50.5,42.2,29.99,North,5,0.0,4.0,73,0.00,,,0.65,Wunderground v.1.15,2013-04-24 19:44:00,
2013-04-24 14:46:00,50.6,42.3,30.00,NW,307,3.0,7.0,73,0.00,,,0.65,Wunderground v.1.15,2013-04-24 19:46:00,
2013-04-24 14:47:00,50.6,42.3,30.00,NNW,335,3.0,7.0,73,0.00,,,0.65,Wunderground v.1.15,2013-04-24 19:47:00,
2013-04-24 14:48:00,50.6,42.6,30.00,NNW,334,0.0,7.0,74,0.00,,,0.65,Wunderground v.1.15,2013-04-24 19:48:00,
2013-04-24 14:49:00,50.6,42.6,29.99,NW,321,2.0,7.0,74,0.00,,,0.65,Wunderground v.1.15,2013-04-24 19:49:00,
2013-04-24 14:50:00,50.6,42.3,30.00,NW,321,1.0,7.0,73,0.00,,,0.65,Wunderground v.1.15,2013-04-24 19:50:00,
2013-04-24 14:51:00,50.6,43.7,30.00,WSW,241,3.0,7.0,77,0.00,,,0.65,Wunderground v.1.15,2013-04-24 19:51:00,
2013-04-24 14:52:00,50.7,43.4,30.00,NNW,329,0.0,7.0,76,0.00,,,0.65,Wunderground v.1.15,2013-04-24 19:52:00,
2013-04-24 14:53:00,50.7,43.1,30.00,North,351,2.0,7.0,75,0.00,,,0.65,Wunderground v.1.15,2013-04-24 19:53:00,
2013-04-24 14:55:00,50.8,43.2,30.00,NW,309,0.0,4.0,75,0.00,,,0.65,Wunderground v.1.15,2013-04-24 19:55:00,
2013-04-24 14:57:00,50.9,42.9,30.00,ENE,73,0.0,8.0,74,0.00,,,0.65,Wunderground v.1.15,2013-04-24 19:57:00,
2013-04-24 14:58:00,50.9,42.9,30.00,NW,307,2.0,8.0,74,0.00,,,0.65,Wunderground v.1.15,2013-04-24 19:58:00,
2013-04-24 15:00:00,50.9,42.6,29.99,NW,307,2.0,8.0,73,0.00,,,0.65,Wunderground v.1.15,2013-04-24 20:00:00,
2013-04-24 15:03:00,51.0,43.0,30.00,NNE,29,2.0,8.0,74,0.00,,,0.65,Wunderground v.1.15,2013-04-24 20:03:00,
2013-04-24 15:04:00,51.0,42.6,30.00,NNE,28,0.0,1.0,73,0.00,,,0.65,Wunderground v.1.15,2013-04-24 20:04:00,
2013-04-24 15:05:00,51.0,42.6,29.99,NW,315,0.0,1.0,73,0.00,,,0.65,Wunderground v.1.15,2013-04-24 20:05:00,
2013-04-24 15:06:00,51.1,42.7,30.00,NNE,15,2.0,4.0,73,0.00,,,0.65,Wunderground v.1.15,2013-04-24 20:06:00,
2013-04-24 15:08:00,51.1,42.4,30.00,NNE,17,0.0,4.0,72,0.00,,,0.65,Wunderground v.1.15,2013-04-24 20:08:00,
2013-04-24 15:09:00,51.2,43.2,29.99,NNW,343,1.0,4.0,74,0.00,,,0.65,Wunderground v.1.15,2013-04-24 20:09:00,
2013-04-24 15:10:00,51.2,43.2,29.99,NW,316,2.0,4.0,74,0.00,,,0.65,Wunderground v.1.15,2013-04-24 20:10:00,
2013-04-24 15:12:00,51.2,42.5,29.99,NW,309,0.0,4.0,72,0.00,,,0.65,Wunderground v.1.15,2013-04-24 20:12:00,
2013-04-24 15:14:00,51.2,42.5,29.99,NNW,346,3.0,8.0,72,0.00,,,0.65,Wunderground v.1.15,2013-04-24 20:14:00,
2013-04-24 15:15:00,51.2,42.5,30.00,NNW,347,0.0,8.0,72,0.00,,,0.65,Wunderground v.1.15,2013-04-24 20:15:00,
2013-04-24 15:16:00,51.3,43.6,29.99,NW,313,2.0,8.0,75,0.00,,,0.65,Wunderground v.1.15,2013-04-24 20:16:00,
2013-04-24 15:18:00,51.4,43.4,30.00,NW,326,1.0,8.0,74,0.00,,,0.65,Wunderground v.1.15,2013-04-24 20:18:00,
2013-04-24 15:20:00,51.6,43.2,30.00,North,360,0.0,8.0,73,0.00,,,0.65,Wunderground v.1.15,2013-04-24 20:20:00,
2013-04-24 15:21:00,51.7,43.3,30.00,North,360,0.0,8.0,73,0.00,,,0.65,Wunderground v.1.15,2013-04-24 20:21:00,
2013-04-24 15:24:00,52.1,43.3,29.99,North,360,0.0,2.0,72,0.00,,,0.65,Wunderground v.1.15,2013-04-24 20:24:00,
2013-04-24 15:25:00,52.2,43.4,29.99,North,360,1.0,2.0,72,0.00,,,0.65,Wunderground v.1.15,2013-04-24 20:25:00,
2013-04-24 15:26:00,52.2,43.4,29.99,NW,325,3.0,3.0,72,0.00,,,0.65,Wunderground v.1.15,2013-04-24 20:26:00,
2013-04-24 15:30:00,52.3,43.9,29.99,North,5,0.0,5.0,73,0.00,,,0.65,Wunderground v.1.15,2013-04-24 20:30:00,
2013-04-24 15:31:00,52.3,43.2,29.99,NNW,338,3.0,5.0,71,0.00,,,0.65,Wunderground v.1.15,2013-04-24 20:31:00,
2013-04-24 15:35:00,52.1,41.9,29.99,East,87,0.0,6.0,68,0.00,,,0.65,Wunderground v.1.15,2013-04-24 20:35:00,
2013-04-24 15:36:00,52.1,42.6,29.99,NNE,26,1.0,6.0,70,0.00,,,0.65,Wunderground v.1.15,2013-04-24 20:36:00,
2013-04-24 15:40:00,51.9,42.0,29.99,WNW,294,3.0,6.0,69,0.00,,,0.65,Wunderground v.1.15,2013-04-24 20:40:00,
2013-04-24 15:41:00,51.8,41.9,29.99,North,360,3.0,6.0,69,0.00,,,0.65,Wunderground v.1.15,2013-04-24 20:41:00,
2013-04-24 15:42:00,51.8,41.9,29.99,North,355,3.0,6.0,69,0.00,,,0.65,Wunderground v.1.15,2013-04-24 20:42:00,
2013-04-24 15:45:00,51.6,41.4,29.99,NW,314,0.0,4.0,68,0.00,,,0.65,Wunderground v.1.15,2013-04-24 20:45:00,
2013-04-24 15:46:00,51.6,41.8,29.99,NW,314,0.0,4.0,69,0.00,,,0.65,Wunderground v.1.15,2013-04-24 20:46:00,
2013-04-24 15:47:00,51.6,42.1,29.99,NW,314,0.0,4.0,70,0.00,,,0.65,Wunderground v.1.15,2013-04-24 20:47:00,
2013-04-24 15:51:00,51.7,42.6,29.99,North,355,6.0,6.0,71,0.00,,,0.65,Wunderground v.1.15,2013-04-24 20:51:00,
2013-04-24 15:52:00,51.7,41.9,29.99,NNE,24,2.0,6.0,69,0.00,,,0.65,Wunderground v.1.15,2013-04-24 20:52:00,
2013-04-24 15:53:00,51.8,42.3,29.99,WNW,301,0.0,6.0,70,0.00,,,0.65,Wunderground v.1.15,2013-04-24 20:53:00,
2013-04-24 15:56:00,52.0,42.9,29.99,East,96,1.0,5.0,71,0.00,,,0.65,Wunderground v.1.15,2013-04-24 20:56:00,
2013-04-24 15:57:00,52.0,42.5,29.99,East,94,1.0,5.0,70,0.00,,,0.65,Wunderground v.1.15,2013-04-24 20:57:00,
2013-04-24 15:58:00,52.1,43.0,29.99,East,94,0.0,5.0,71,0.00,,,0.65,Wunderground v.1.15,2013-04-24 20:58:00,
2013-04-24 16:02:00,52.2,42.7,29.99,NNW,347,0.0,5.0,70,0.00,,,0.65,Wunderground v.1.15,2013-04-24 21:02:00,
2013-04-24 16:03:00,52.3,42.8,29.99,NNW,338,0.0,1.0,70,0.00,,,0.65,Wunderground v.1.15,2013-04-24 21:03:00,
2013-04-24 16:04:00,52.3,43.2,29.99,NNE,28,2.0,2.0,71,0.00,,,0.65,Wunderground v.1.15,2013-04-24 21:04:00,
2013-04-24 16:07:00,52.4,42.9,29.99,East,80,2.0,4.0,70,0.00,,,0.65,Wunderground v.1.15,2013-04-24 21:07:00,
2013-04-24 16:08:00,52.5,43.0,29.99,East,80,0.0,5.0,70,0.00,,,0.65,Wunderground v.1.15,2013-04-24 21:08:00,
2013-04-24 16:09:00,52.6,43.1,30.00,NNE,28,8.0,8.0,70,0.00,,,0.65,Wunderground v.1.15,2013-04-24 21:09:00,
2013-04-24 16:12:00,52.4,41.8,29.99,NNE,29,8.0,10.0,67,0.00,,,0.65,Wunderground v.1.15,2013-04-24 21:12:00,
2013-04-24 16:13:00,52.4,42.1,29.99,NNW,327,0.0,10.0,68,0.00,,,0.65,Wunderground v.1.15,2013-04-24 21:13:00,
2013-04-24 16:14:00,52.3,42.4,29.99,WNW,294,0.0,2.0,69,0.00,,,0.65,Wunderground v.1.15,2013-04-24 21:14:00,
2013-04-24 16:17:00,52.2,42.3,29.99,NNE,30,0.0,2.0,69,0.00,,,0.65,Wunderground v.1.15,2013-04-24 21:17:00,
2013-04-24 16:19:00,52.1,42.6,29.99,NW,313,0.0,2.0,70,0.00,,,0.65,Wunderground v.1.15,2013-04-24 21:19:00,
2013-04-24 16:22:00,52.1,43.3,29.99,SE,145,0.0,5.0,72,0.00,,,0.65,Wunderground v.1.15,2013-04-24 21:22:00,
2013-04-24 16:23:00,52.1,43.0,29.99,North,355,2.0,2.0,71,0.00,,,0.65,Wunderground v.1.15,2013-04-24 21:23:00,
2013-04-24 16:24:00,52.2,43.1,30.00,WNW,302,3.0,6.0,71,0.00,,,0.65,Wunderground v.1.15,2013-04-24 21:24:00,
2013-04-24 16:25:00,52.2,42.3,30.00,WNW,302,3.0,6.0,69,0.00,,,0.65,Wunderground v.1.15,2013-04-24 21:25:00,
2013-04-24 16:28:00,52.2,42.3,30.00,WNW,302,0.0,6.0,69,0.00,,,0.65,Wunderground v.1.15,2013-04-24 21:28:00,
2013-04-24 16:29:00,52.3,42.8,29.99,NNW,346,0.0,6.0,70,0.00,,,0.65,Wunderground v.1.15,2013-04-24 21:29:00,
2013-04-24 16:30:00,52.3,42.0,29.99,NE,36,5.0,6.0,68,0.00,,,0.65,Wunderground v.1.15,2013-04-24 21:30:00,
2013-04-24 16:31:00,52.4,42.1,29.99,North,5,0.0,6.0,68,0.00,,,0.65,Wunderground v.1.15,2013-04-24 21:31:00,
2013-04-24 16:33:00,52.5,41.5,29.99,NNW,348,4.0,5.0,66,0.00,,,0.65,Wunderground v.1.15,2013-04-24 21:33:00,
2013-04-24 16:34:00,52.5,41.9,29.99,NNE,19,0.0,5.0,67,0.00,,,0.65,Wunderground v.1.15,2013-04-24 21:34:00,
2013-04-24 16:35:00,52.6,42.3,29.99,NW,321,0.0,5.0,68,0.00,,,0.65,Wunderground v.1.15,2013-04-24 21:35:00,
2013-04-24 16:36:00,52.6,42.3,29.99,NW,321,0.0,5.0,68,0.00,,,0.65,Wunderground v.1.15,2013-04-24 21:36:00,
2013-04-24 16:39:00,52.8,42.9,29.99,West,278,4.0,5.0,69,0.00,,,0.65,Wunderground v.1.15,2013-04-24 21:39:00,
2013-04-24 16:40:00,52.8,41.7,29.99,WNW,294,2.0,5.0,66,0.00,,,0.65,Wunderground v.1.15,2013-04-24 21:40:00,
2013-04-24 16:41:00,52.8,41.7,29.99,WNW,294,0.0,5.0,66,0.00,,,0.65,Wunderground v.1.15,2013-04-24 21:41:00,
2013-04-24 16:42:00,52.8,41.7,29.99,WNW,294,0.0,5.0,66,0.00,,,0.65,Wunderground v.1.15,2013-04-24 21:42:00,
2013-04-24 16:44:00,52.8,42.1,29.99,WNW,297,0.0,2.0,67,0.00,,,0.65,Wunderground v.1.15,2013-04-24 21:44:00,
2013-04-24 16:46:00,52.8,43.3,29.99,WNW,296,0.0,2.0,70,0.00,,,0.65,Wunderground v.1.15,2013-04-24 21:46:00,
2013-04-24 16:47:00,52.9,43.4,29.99,East,89,0.0,4.0,70,0.00,,,0.65,Wunderground v.1.15,2013-04-24 21:47:00,
2013-04-24 16:49:00,53.0,41.9,29.99,NNW,340,1.0,4.0,66,0.00,,,0.65,Wunderground v.1.15,2013-04-24 21:49:00,
2013-04-24 16:51:00,53.0,42.3,29.99,North,11,3.0,4.0,67,0.00,,,0.65,Wunderground v.1.15,2013-04-24 21:51:00,
2013-04-24 16:52:00,53.0,41.5,29.99,NNW,338,3.0,6.0,65,0.00,,,0.65,Wunderground v.1.15,2013-04-24 21:52:00,
2013-04-24 16:53:00,53.0,41.9,29.99,North,10,0.0,6.0,66,0.00,,,0.65,Wunderground v.1.15,2013-04-24 21:53:00,
2013-04-24 16:54:00,53.0,42.7,29.99,ENE,71,0.0,1.0,68,0.00,,,0.65,Wunderground v.1.15,2013-04-24 21:54:00,
2013-04-24 16:55:00,53.0,42.7,29.99,ENE,78,8.0,8.0,68,0.00,,,0.65,Wunderground v.1.15,2013-04-24 21:55:00,
2013-04-24 16:56:00,53.0,42.7,29.99,East,80,0.0,8.0,68,0.00,,,0.65,Wunderground v.1.15,2013-04-24 21:56:00,
2013-04-24 16:57:00,53.1,43.2,29.99,East,86,0.0,8.0,69,0.00,,,0.65,Wunderground v.1.15,2013-04-24 21:57:00,
2013-04-24 16:58:00,53.2,43.3,29.99,ESE,111,0.0,8.0,69,0.00,,,0.65,Wunderground v.1.15,2013-04-24 21:58:00,
2013-04-24 17:00:00,53.2,42.9,29.99,North,360,0.0,8.0,68,0.00,,,0.65,Wunderground v.1.15,2013-04-24 22:00:00,
2013-04-24 17:01:00,53.3,43.4,29.99,South,188,0.0,8.0,69,0.00,,,0.65,Wunderground v.1.15,2013-04-24 22:01:00,
2013-04-24 17:03:00,53.3,43.4,29.99,NW,317,0.0,8.0,69,0.00,,,0.65,Wunderground v.1.15,2013-04-24 22:03:00,
2013-04-24 17:05:00,53.2,42.1,29.99,NW,315,0.0,1.0,66,0.00,,,0.65,Wunderground v.1.15,2013-04-24 22:05:00,
2013-04-24 17:06:00,53.2,42.1,29.99,NW,315,0.0,1.0,66,0.00,,,0.65,Wunderground v.1.15,2013-04-24 22:06:00,
2013-04-24 17:08:00,53.0,41.9,29.99,NW,315,0.0,1.0,66,0.00,,,0.65,Wunderground v.1.15,2013-04-24 22:08:00,
2013-04-24 17:10:00,52.9,41.8,29.99,East,92,0.0,2.0,66,0.00,,,0.65,Wunderground v.1.15,2013-04-24 22:10:00,
2013-04-24 17:11:00,52.9,41.8,29.99,East,99,0.0,2.0,66,0.00,,,0.65,Wunderground v.1.15,2013-04-24 22:11:00,
2013-04-24 17:13:00,52.8,41.7,29.99,East,92,0.0,1.0,66,0.00,,,0.65,Wunderground v.1.15,2013-04-24 22:13:00,
2013-04-24 17:14:00,52.7,41.7,29.99,East,94,0.0,2.0,66,0.00,,,0.65,Wunderground v.1.15,2013-04-24 22:14:00,
2013-04-24 17:15:00,52.7,41.7,29.99,East,92,0.0,2.0,66,0.00,,,0.65,Wunderground v.1.15,2013-04-24 22:15:00,
2013-04-24 17:16:00,52.7,41.7,29.99,East,93,0.0,2.0,66,0.00,,,0.65,Wunderground v.1.15,2013-04-24 22:16:00,
2013-04-24 17:18:00,52.8,42.9,29.99,NNE,18,0.0,2.0,69,0.00,,,0.65,Wunderground v.1.15,2013-04-24 22:18:00,
2013-04-24 17:20:00,52.8,42.1,29.99,SW,236,0.0,2.0,67,0.00,,,0.65,Wunderground v.1.15,2013-04-24 22:20:00,
2013-04-24 17:22:00,52.9,42.6,29.99,SSE,164,0.0,2.0,68,0.00,,,0.65,Wunderground v.1.15,2013-04-24 22:22:00,
2013-04-24 17:23:00,52.9,42.2,29.99,North,355,0.0,0.0,67,0.00,,,0.65,Wunderground v.1.15,2013-04-24 22:23:00,
2013-04-24 17:25:00,53.0,42.3,29.99,ESE,113,0.0,2.0,67,0.00,,,0.65,Wunderground v.1.15,2013-04-24 22:25:00,
2013-04-24 17:27:00,53.0,41.9,29.99,North,9,0.0,5.0,66,0.00,,,0.65,Wunderground v.1.15,2013-04-24 22:27:00,
2013-04-24 17:29:00,53.0,41.5,29.99,North,5,0.0,5.0,65,0.00,,,0.65,Wunderground v.1.15,2013-04-24 22:29:00,
2013-04-24 17:30:00,53.1,42.0,29.99,NW,317,1.0,5.0,66,0.00,,,0.65,Wunderground v.1.15,2013-04-24 22:30:00,
2013-04-24 17:31:00,53.1,41.6,29.99,NW,317,0.0,5.0,65,0.00,,,0.65,Wunderground v.1.15,2013-04-24 22:31:00,
2013-04-24 17:33:00,53.2,41.7,29.99,NNE,19,0.0,1.0,65,0.00,,,0.65,Wunderground v.1.15,2013-04-24 22:33:00,
2013-04-24 17:34:00,53.2,41.7,29.99,NNE,18,0.0,1.0,65,0.00,,,0.65,Wunderground v.1.15,2013-04-24 22:34:00,
2013-04-24 17:35:00,53.2,42.1,29.99,NW,312,4.0,4.0,66,0.00,,,0.65,Wunderground v.1.15,2013-04-24 22:35:00,
2013-04-24 17:36:00,53.2,42.1,29.99,NW,312,0.0,4.0,66,0.00,,,0.65,Wunderground v.1.15,2013-04-24 22:36:00,
2013-04-24 17:38:00,53.2,42.1,29.99,NW,311,0.0,4.0,66,0.00,,,0.65,Wunderground v.1.15,2013-04-24 22:38:00,
2013-04-24 17:40:00,53.1,41.6,29.99,NW,312,0.0,4.0,65,0.00,,,0.65,Wunderground v.1.15,2013-04-24 22:40:00,
2013-04-24 17:42:00,53.1,42.8,29.99,NW,311,0.0,4.0,68,0.00,,,0.65,Wunderground v.1.15,2013-04-24 22:42:00,
2013-04-24 17:44:00,53.1,42.8,29.99,NW,312,0.0,0.0,68,0.00,,,0.65,Wunderground v.1.15,2013-04-24 22:44:00,
2013-04-24 17:45:00,53.1,42.4,29.99,NW,312,0.0,0.0,67,0.00,,,0.65,Wunderground v.1.15,2013-04-24 22:45:00,
2013-04-24 17:46:00,53.1,42.4,29.99,NW,312,0.0,0.0,67,0.00,,,0.65,Wunderground v.1.15,2013-04-24 22:46:00,
2013-04-24 17:49:00,53.1,42.4,29.99,NW,311,1.0,1.0,67,0.00,,,0.65,Wunderground v.1.15,2013-04-24 22:49:00,
2013-04-24 17:50:00,53.2,41.7,29.99,North,355,1.0,3.0,65,0.00,,,0.65,Wunderground v.1.15,2013-04-24 22:50:00,
2013-04-24 17:51:00,53.2,41.7,30.00,North,355,0.0,3.0,65,0.00,,,0.65,Wunderground v.1.15,2013-04-24 22:51:00,
2013-04-24 17:54:00,53.2,41.7,30.00,NNW,340,5.0,5.0,65,0.00,,,0.65,Wunderground v.1.15,2013-04-24 22:54:00,
2013-04-24 17:55:00,53.2,41.3,30.00,NNW,332,0.0,5.0,64,0.00,,,0.65,Wunderground v.1.15,2013-04-24 22:55:00,
2013-04-24 17:56:00,53.2,41.3,30.00,NNW,341,0.0,5.0,64,0.00,,,0.65,Wunderground v.1.15,2013-04-24 22:56:00,
2013-04-24 17:57:00,53.2,41.3,30.00,North,349,0.0,5.0,64,0.00,,,0.65,Wunderground v.1.15,2013-04-24 22:57:00,
2013-04-24 17:59:00,53.2,41.3,30.00,NW,325,0.0,5.0,64,0.00,,,0.65,Wunderground v.1.15,2013-04-24 22:59:00,
2013-04-24 18:00:00,53.2,40.9,29.99,NW,325,0.0,5.0,63,0.00,,,0.65,Wunderground v.1.15,2013-04-24 23:00:00,
2013-04-24 18:02:00,53.2,40.9,30.00,NW,325,0.0,5.0,63,0.00,,,0.65,Wunderground v.1.15,2013-04-24 23:02:00,
2013-04-24 18:05:00,53.2,41.3,30.00,NW,325,0.0,0.0,64,0.00,,,0.65,Wunderground v.1.15,2013-04-24 23:05:00,
2013-04-24 18:07:00,53.2,41.3,30.00,WNW,302,2.0,3.0,64,0.00,,,0.65,Wunderground v.1.15,2013-04-24 23:07:00,
2013-04-24 18:08:00,53.2,41.3,30.00,WNW,298,0.0,3.0,64,0.00,,,0.65,Wunderground v.1.15,2013-04-24 23:08:00,
2013-04-24 18:10:00,53.2,41.7,30.00,NNW,328,3.0,3.0,65,0.00,,,0.65,Wunderground v.1.15,2013-04-24 23:10:00,
2013-04-24 18:11:00,53.1,41.2,30.00,NNW,327,0.0,4.0,64,0.00,,,0.65,Wunderground v.1.15,2013-04-24 23:11:00,
2013-04-24 18:12:00,53.1,41.2,30.00,NNW,327,0.0,4.0,64,0.00,,,0.65,Wunderground v.1.15,2013-04-24 23:12:00,
2013-04-24 18:13:00,53.1,41.6,30.00,NNW,342,0.0,1.0,65,0.00,,,0.65,Wunderground v.1.15,2013-04-24 23:13:00,
2013-04-24 18:15:00,53.1,41.6,30.00,North,351,0.0,1.0,65,0.00,,,0.65,Wunderground v.1.15,2013-04-24 23:15:00,
2013-04-24 18:17:00,53.1,41.6,30.00,North,351,0.0,1.0,65,0.00,,,0.65,Wunderground v.1.15,2013-04-24 23:17:00,
2013-04-24 18:20:00,53.0,41.5,30.00,NNW,346,0.0,1.0,65,0.00,,,0.65,Wunderground v.1.15,2013-04-24 23:20:00,
2013-04-24 18:21:00,52.9,41.4,30.00,NW,324,0.0,1.0,65,0.00,,,0.65,Wunderground v.1.15,2013-04-24 23:21:00,
2013-04-24 18:22:00,52.9,41.4,30.00,NW,307,1.0,3.0,65,0.00,,,0.65,Wunderground v.1.15,2013-04-24 23:22:00,
2013-04-24 18:25:00,52.8,41.4,30.00,NE,36,0.0,4.0,65,0.00,,,0.65,Wunderground v.1.15,2013-04-24 23:25:00,
2013-04-24 18:26:00,52.7,41.3,30.00,NNE,13,0.0,4.0,65,0.00,,,0.65,Wunderground v.1.15,2013-04-24 23:26:00,
2013-04-24 18:27:00,52.7,40.9,30.00,NNE,14,1.0,4.0,64,0.00,,,0.65,Wunderground v.1.15,2013-04-24 23:27:00,
2013-04-24 18:28:00,52.7,40.9,30.00,NNE,14,0.0,4.0,64,0.00,,,0.65,Wunderground v.1.15,2013-04-24 23:28:00,
2013-04-24 18:31:00,52.6,41.2,30.00,NNW,327,0.0,4.0,65,0.00,,,0.65,Wunderground v.1.15,2013-04-24 23:31:00,
2013-04-24 18:33:00,52.6,41.2,30.00,West,280,2.0,4.0,65,0.00,,,0.65,Wunderground v.1.15,2013-04-24 23:33:00,
2013-04-24 18:36:00,52.6,41.2,29.99,NNE,19,0.0,3.0,65,0.00,,,0.65,Wunderground v.1.15,2013-04-24 23:36:00,
2013-04-24 18:38:00,52.5,41.1,29.99,North,11,0.0,3.0,65,0.00,,,0.65,Wunderground v.1.15,2013-04-24 23:38:00,
2013-04-24 18:41:00,52.5,41.1,29.99,North,5,0.0,5.0,65,0.00,,,0.65,Wunderground v.1.15,2013-04-24 23:41:00,
2013-04-24 18:43:00,52.4,40.6,30.00,NNE,21,0.0,1.0,64,0.00,,,0.65,Wunderground v.1.15,2013-04-24 23:43:00,
2013-04-24 18:47:00,52.4,41.4,30.00,NNE,25,0.0,1.0,66,0.00,,,0.65,Wunderground v.1.15,2013-04-24 23:47:00,
2013-04-24 18:48:00,52.4,41.0,29.99,NNE,25,0.0,1.0,65,0.00,,,0.65,Wunderground v.1.15,2013-04-24 23:48:00,
2013-04-24 18:52:00,52.3,41.7,29.99,NNE,25,0.0,1.0,67,0.00,,,0.65,Wunderground v.1.15,2013-04-24 23:52:00,
2013-04-24 18:54:00,52.2,42.0,30.00,NNE,25,0.0,0.0,68,0.00,,,0.65,Wunderground v.1.15,2013-04-24 23:54:00,
2013-04-24 18:58:00,52.0,42.1,30.00,NNE,25,0.0,0.0,69,0.00,,,0.65,Wunderground v.1.15,2013-04-24 23:58:00,
2013-04-24 18:59:00,51.9,42.0,30.00,NNE,25,0.0,0.0,69,0.00,,,0.65,Wunderground v.1.15,2013-04-24 23:59:00,
2013-04-24 19:00:00,51.9,41.7,30.00,NNE,25,0.0,0.0,68,0.00,,,0.65,Wunderground v.1.15,2013-04-25 00:00:00,
2013-04-24 19:03:00,51.7,42.2,30.00,NNE,25,0.0,0.0,70,0.00,,,0.65,Wunderground v.1.15,2013-04-25 00:03:00,
2013-04-24 19:04:00,51.6,42.1,30.00,NNE,25,0.0,0.0,70,0.00,,,0.65,Wunderground v.1.15,2013-04-25 00:04:00,
2013-04-24 19:05:00,51.6,42.1,29.99,NNE,25,0.0,0.0,70,0.00,,,0.65,Wunderground v.1.15,2013-04-25 00:05:00,
2013-04-24 19:08:00,51.4,42.3,30.00,NNE,25,0.0,0.0,71,0.00,,,0.65,Wunderground v.1.15,2013-04-25 00:08:00,
2013-04-24 19:09:00,51.4,41.9,30.00,NNE,25,0.0,0.0,70,0.00,,,0.65,Wunderground v.1.15,2013-04-25 00:09:00,
2013-04-24 19:11:00,51.3,41.8,30.00,NNE,25,0.0,0.0,70,0.00,,,0.65,Wunderground v.1.15,2013-04-25 00:11:00,
2013-04-24 19:13:00,51.2,42.8,30.00,NNE,25,0.0,0.0,73,0.00,,,0.65,Wunderground v.1.15,2013-04-25 00:13:00,
2013-04-24 19:14:00,51.1,42.0,30.00,NNE,25,0.0,0.0,71,0.00,,,0.65,Wunderground v.1.15,2013-04-25 00:14:00,
2013-04-24 19:15:00,51.1,42.0,30.00,NNE,25,0.0,0.0,71,0.00,,,0.65,Wunderground v.1.15,2013-04-25 00:15:00,
2013-04-24 19:16:00,51.0,42.3,29.99,NNE,25,0.0,0.0,72,0.00,,,0.65,Wunderground v.1.15,2013-04-25 00:16:00,
2013-04-24 19:18:00,50.9,42.9,30.00,NNE,25,0.0,0.0,74,0.00,,,0.65,Wunderground v.1.15,2013-04-25 00:18:00,
2013-04-24 19:20:00,50.8,43.2,30.00,NNE,25,0.0,0.0,75,0.00,,,0.65,Wunderground v.1.15,2013-04-25 00:20:00,
2013-04-24 19:21:00,50.8,43.8,30.00,NNE,25,0.0,0.0,77,0.00,,,0.65,Wunderground v.1.15,2013-04-25 00:21:00,
2013-04-24 19:24:00,50.5,43.9,30.00,NNE,25,0.0,0.0,78,0.00,,,0.65,Wunderground v.1.15,2013-04-25 00:24:00,
2013-04-24 19:25:00,50.5,43.9,30.00,NNE,25,0.0,0.0,78,0.00,,,0.65,Wunderground v.1.15,2013-04-25 00:25:00,
2013-04-24 19:26:00,50.3,43.7,30.00,NNE,25,0.0,0.0,78,0.00,,,0.65,Wunderground v.1.15,2013-04-25 00:26:00,
2013-04-24 19:27:00,50.2,43.6,30.00,NNE,25,0.0,0.0,78,0.00,,,0.65,Wunderground v.1.15,2013-04-25 00:27:00,
2013-04-24 19:28:00,50.1,43.5,30.00,NNE,25,0.0,0.0,78,0.00,,,0.65,Wunderground v.1.15,2013-04-25 00:28:00,
2013-04-24 19:29:00,50.0,43.7,30.00,NNE,22,0.0,0.0,79,0.00,,,0.65,Wunderground v.1.15,2013-04-25 00:29:00,
2013-04-24 19:30:00,49.9,43.6,30.00,NNE,22,0.0,0.0,79,0.00,,,0.65,Wunderground v.1.15,2013-04-25 00:30:00,
2013-04-24 19:31:00,49.7,43.5,30.00,NNE,22,0.0,0.0,79,0.00,,,0.65,Wunderground v.1.15,2013-04-25 00:31:00,
2013-04-24 19:32:00,49.6,43.4,30.00,NNE,23,0.0,0.0,79,0.00,,,0.65,Wunderground v.1.15,2013-04-25 00:32:00,
2013-04-24 19:33:00,49.5,43.3,30.00,NNE,23,0.0,0.0,79,0.00,,,0.65,Wunderground v.1.15,2013-04-25 00:33:00,
2013-04-24 19:34:00,49.4,43.5,30.00,NNE,22,0.0,0.0,80,0.00,,,0.65,Wunderground v.1.15,2013-04-25 00:34:00,
2013-04-24 19:36:00,49.2,43.3,30.00,NNE,23,0.0,0.0,80,0.00,,,0.65,Wunderground v.1.15,2013-04-25 00:36:00,
2013-04-24 19:38:00,49.0,43.1,30.00,NNE,23,0.0,0.0,80,0.00,,,0.65,Wunderground v.1.15,2013-04-25 00:38:00,
2013-04-24 19:39:00,48.9,43.0,30.00,NNE,22,0.0,0.0,80,0.00,,,0.65,Wunderground v.1.15,2013-04-25 00:39:00,
2013-04-24 19:42:00,48.6,43.0,30.00,NNE,23,0.0,0.0,81,0.00,,,0.65,Wunderground v.1.15,2013-04-25 00:42:00,
2013-04-24 19:43:00,48.4,42.8,30.00,NNE,22,0.0,0.0,81,0.00,,,0.65,Wunderground v.1.15,2013-04-25 00:43:00,
2013-04-24 19:44:00,48.3,42.7,30.00,NNE,23,0.0,0.0,81,0.00,,,0.65,Wunderground v.1.15,2013-04-25 00:44:00,
2013-04-24 19:45:00,48.3,42.7,30.00,NNE,23,0.0,0.0,81,0.00,,,0.65,Wunderground v.1.15,2013-04-25 00:45:00,
2013-04-24 19:47:00,48.1,42.5,30.00,NNE,23,0.0,0.0,81,0.00,,,0.65,Wunderground v.1.15,2013-04-25 00:47:00,
2013-04-24 19:48:00,47.9,42.7,30.00,NNE,22,0.0,0.0,82,0.00,,,0.65,Wunderground v.1.15,2013-04-25 00:48:00,
2013-04-24 19:50:00,47.8,42.6,30.00,NNE,22,0.0,0.0,82,0.00,,,0.65,Wunderground v.1.15,2013-04-25 00:50:00,
2013-04-24 19:52:00,47.7,42.5,30.00,NNE,23,0.0,0.0,82,0.00,,,0.65,Wunderground v.1.15,2013-04-25 00:52:00,
2013-04-24 19:53:00,47.7,42.8,30.00,NNE,23,0.0,0.0,83,0.00,,,0.65,Wunderground v.1.15,2013-04-25 00:53:00,
2013-04-24 19:54:00,47.6,42.7,30.01,NNE,22,0.0,0.0,83,0.00,,,0.65,Wunderground v.1.15,2013-04-25 00:54:00,
2013-04-24 19:55:00,47.5,42.6,30.01,NNE,23,0.0,0.0,83,0.00,,,0.65,Wunderground v.1.15,2013-04-25 00:55:00,
2013-04-24 19:57:00,47.4,42.5,30.01,NNE,23,0.0,0.0,83,0.00,,,0.65,Wunderground v.1.15,2013-04-25 00:57:00,
2013-04-24 19:58:00,47.4,42.8,30.01,NNE,23,0.0,0.0,84,0.00,,,0.65,Wunderground v.1.15,2013-04-25 00:58:00,
2013-04-24 20:00:00,47.2,42.6,30.01,NNE,22,0.0,0.0,84,0.00,,,0.65,Wunderground v.1.15,2013-04-25 01:00:00,
2013-04-24 20:01:00,47.2,42.6,30.01,NNE,23,0.0,0.0,84,0.00,,,0.65,Wunderground v.1.15,2013-04-25 01:01:00,
2013-04-24 20:03:00,47.0,42.7,30.01,NNE,23,0.0,0.0,85,0.00,,,0.65,Wunderground v.1.15,2013-04-25 01:03:00,
2013-04-24 20:04:00,46.9,42.6,30.02,NNE,23,0.0,0.0,85,0.00,,,0.65,Wunderground v.1.15,2013-04-25 01:04:00,
2013-04-24 20:05:00,46.8,42.5,30.01,NNE,23,0.0,0.0,85,0.00,,,0.65,Wunderground v.1.15,2013-04-25 01:05:00,
2013-04-24 20:06:00,46.8,42.5,30.01,NNE,23,0.0,0.0,85,0.00,,,0.65,Wunderground v.1.15,2013-04-25 01:06:00,
2013-04-24 20:08:00,46.6,42.6,30.02,NNE,22,0.0,0.0,86,0.00,,,0.65,Wunderground v.1.15,2013-04-25 01:08:00,
2013-04-24 20:09:00,46.5,42.5,30.02,NNE,23,0.0,0.0,86,0.00,,,0.65,Wunderground v.1.15,2013-04-25 01:09:00,
2013-04-24 20:10:00,46.4,42.4,30.02,NNE,23,0.0,0.0,86,0.00,,,0.65,Wunderground v.1.15,2013-04-25 01:10:00,
2013-04-24 20:11:00,46.4,42.4,30.02,NNE,23,0.0,0.0,86,0.00,,,0.65,Wunderground v.1.15,2013-04-25 01:11:00,
2013-04-24 20:13:00,46.2,42.5,30.02,NNE,22,0.0,0.0,87,0.00,,,0.65,Wunderground v.1.15,2013-04-25 01:13:00,
2013-04-24 20:15:00,46.1,42.4,30.02,NNE,22,0.0,0.0,87,0.00,,,0.65,Wunderground v.1.15,2013-04-25 01:15:00,
2013-04-24 20:16:00,46.0,42.3,30.02,NNE,23,0.0,0.0,87,0.00,,,0.65,Wunderground v.1.15,2013-04-25 01:16:00,
2013-04-24 20:18:00,45.9,42.5,30.02,NNE,22,0.0,0.0,88,0.00,,,0.65,Wunderground v.1.15,2013-04-25 01:18:00,
2013-04-24 20:21:00,45.7,42.3,30.02,NNE,22,0.0,0.0,88,0.00,,,0.65,Wunderground v.1.15,2013-04-25 01:21:00,
2013-04-24 20:23:00,45.6,42.3,30.02,NNE,22,0.0,0.0,88,0.00,,,0.65,Wunderground v.1.15,2013-04-25 01:23:00,
2013-04-24 20:26:00,45.4,42.1,30.02,NNE,23,0.0,0.0,88,0.00,,,0.65,Wunderground v.1.15,2013-04-25 01:26:00,
2013-04-24 20:27:00,45.4,42.1,30.03,NNE,22,0.0,0.0,88,0.00,,,0.65,Wunderground v.1.15,2013-04-25 01:27:00,
2013-04-24 20:28:00,45.4,42.1,30.03,NNE,23,0.0,0.0,88,0.00,,,0.65,Wunderground v.1.15,2013-04-25 01:28:00,
2013-04-24 20:32:00,45.2,42.2,30.02,NNE,23,0.0,0.0,89,0.00,,,0.65,Wunderground v.1.15,2013-04-25 01:32:00,
2013-04-24 20:33:00,45.1,42.1,30.03,NNE,22,0.0,0.0,89,0.00,,,0.65,Wunderground v.1.15,2013-04-25 01:33:00,
2013-04-24 20:34:00,45.1,42.1,30.03,NNE,22,0.0,0.0,89,0.00,,,0.65,Wunderground v.1.15,2013-04-25 01:34:00,
2013-04-24 20:37:00,45.0,42.0,30.03,NNE,22,0.0,0.0,89,0.00,,,0.65,Wunderground v.1.15,2013-04-25 01:37:00,
2013-04-24 20:38:00,45.0,42.0,30.03,NNE,22,0.0,0.0,89,0.00,,,0.65,Wunderground v.1.15,2013-04-25 01:38:00,
2013-04-24 20:39:00,44.9,41.9,30.03,NNE,22,0.0,0.0,89,0.00,,,0.65,Wunderground v.1.15,2013-04-25 01:39:00,
2013-04-24 20:43:00,44.7,41.9,30.03,NNE,23,0.0,0.0,90,0.00,,,0.65,Wunderground v.1.15,2013-04-25 01:43:00,
2013-04-24 20:44:00,44.7,41.9,30.03,NNE,23,0.0,0.0,90,0.00,,,0.65,Wunderground v.1.15,2013-04-25 01:44:00,
2013-04-24 20:49:00,44.5,41.7,30.03,NNE,22,0.0,0.0,90,0.00,,,0.65,Wunderground v.1.15,2013-04-25 01:49:00,
2013-04-24 20:52:00,44.4,41.7,30.04,NNE,22,0.0,0.0,90,0.00,,,0.65,Wunderground v.1.15,2013-04-25 01:52:00,
2013-04-24 20:54:00,44.3,41.6,30.04,NNE,23,0.0,0.0,90,0.00,,,0.65,Wunderground v.1.15,2013-04-25 01:54:00,
2013-04-24 20:55:00,44.2,41.5,30.04,NNE,23,0.0,0.0,90,0.00,,,0.65,Wunderground v.1.15,2013-04-25 01:55:00,
2013-04-24 20:56:00,44.2,41.5,30.04,NNE,23,0.0,0.0,90,0.00,,,0.65,Wunderground v.1.15,2013-04-25 01:56:00,
2013-04-24 20:57:00,44.2,41.5,30.04,NNE,23,0.0,0.0,90,0.00,,,0.65,Wunderground v.1.15,2013-04-25 01:57:00,
2013-04-24 20:59:00,44.1,41.6,30.04,NNE,22,0.0,0.0,91,0.00,,,0.65,Wunderground v.1.15,2013-04-25 01:59:00,
2013-04-24 21:00:00,44.1,41.6,30.04,NNE,23,0.0,0.0,91,0.00,,,0.65,Wunderground v.1.15,2013-04-25 02:00:00,
2013-04-24 21:01:00,44.1,41.6,30.04,NNE,22,0.0,0.0,91,0.00,,,0.65,Wunderground v.1.15,2013-04-25 02:01:00,
2013-04-24 21:02:00,44.1,41.6,30.04,NNE,22,0.0,0.0,91,0.00,,,0.65,Wunderground v.1.15,2013-04-25 02:02:00,
2013-04-24 21:05:00,44.1,41.6,30.05,NNE,23,0.0,0.0,91,0.00,,,0.65,Wunderground v.1.15,2013-04-25 02:05:00,
2013-04-24 21:06:00,44.1,41.6,30.05,NNE,23,0.0,0.0,91,0.00,,,0.65,Wunderground v.1.15,2013-04-25 02:06:00,
2013-04-24 21:08:00,44.0,41.5,30.05,NNE,23,0.0,0.0,91,0.00,,,0.65,Wunderground v.1.15,2013-04-25 02:08:00,
2013-04-24 21:11:00,44.0,41.5,30.05,NNE,23,0.0,0.0,91,0.00,,,0.65,Wunderground v.1.15,2013-04-25 02:11:00,
2013-04-24 21:12:00,44.0,41.5,30.05,NNE,23,0.0,0.0,91,0.00,,,0.65,Wunderground v.1.15,2013-04-25 02:12:00,
2013-04-24 21:13:00,44.0,41.5,30.04,NNE,22,0.0,0.0,91,0.00,,,0.65,Wunderground v.1.15,2013-04-25 02:13:00,
2013-04-24 21:16:00,43.9,41.7,30.05,NNE,23,0.0,0.0,92,0.00,,,0.65,Wunderground v.1.15,2013-04-25 02:16:00,
2013-04-24 21:17:00,43.9,41.7,30.05,NNE,23,0.0,0.0,92,0.00,,,0.65,Wunderground v.1.15,2013-04-25 02:17:00,
2013-04-24 21:18:00,43.9,41.7,30.05,NNE,22,0.0,0.0,92,0.00,,,0.65,Wunderground v.1.15,2013-04-25 02:18:00,
2013-04-24 21:19:00,43.9,41.7,30.05,NNE,22,0.0,0.0,92,0.00,,,0.65,Wunderground v.1.15,2013-04-25 02:19:00,
2013-04-24 21:22:00,43.8,41.6,30.05,NNE,23,0.0,0.0,92,0.00,,,0.65,Wunderground v.1.15,2013-04-25 02:22:00,
2013-04-24 21:23:00,43.8,41.6,30.05,NNE,23,0.0,0.0,92,0.00,,,0.65,Wunderground v.1.15,2013-04-25 02:23:00,
2013-04-24 21:24:00,43.8,41.6,30.05,NNE,23,0.0,0.0,92,0.00,,,0.65,Wunderground v.1.15,2013-04-25 02:24:00,
2013-04-24 21:27:00,43.8,41.6,30.05,NNE,23,0.0,0.0,92,0.00,,,0.65,Wunderground v.1.15,2013-04-25 02:27:00,
2013-04-24 21:29:00,43.7,41.5,30.05,NNE,23,0.0,0.0,92,0.00,,,0.65,Wunderground v.1.15,2013-04-25 02:29:00,
2013-04-24 21:32:00,43.7,41.5,30.05,NNE,23,0.0,0.0,92,0.00,,,0.65,Wunderground v.1.15,2013-04-25 02:32:00,
2013-04-24 21:34:00,43.6,41.4,30.05,NNE,22,0.0,0.0,92,0.00,,,0.65,Wunderground v.1.15,2013-04-25 02:34:00,
2013-04-24 21:36:00,43.6,41.4,30.06,NNE,23,0.0,0.0,92,0.00,,,0.65,Wunderground v.1.15,2013-04-25 02:36:00,
2013-04-24 21:37:00,43.6,41.4,30.05,NNE,22,0.0,0.0,92,0.00,,,0.65,Wunderground v.1.15,2013-04-25 02:37:00,
2013-04-24 21:40:00,43.4,41.2,30.06,NNE,23,0.0,0.0,92,0.00,,,0.65,Wunderground v.1.15,2013-04-25 02:40:00,
2013-04-24 21:41:00,43.4,41.2,30.06,NNE,23,0.0,0.0,92,0.00,,,0.65,Wunderground v.1.15,2013-04-25 02:41:00,
2013-04-24 21:42:00,43.4,41.2,30.06,NNE,22,0.0,0.0,92,0.00,,,0.65,Wunderground v.1.15,2013-04-25 02:42:00,
2013-04-24 21:43:00,43.4,41.2,30.06,NNE,23,0.0,0.0,92,0.00,,,0.65,Wunderground v.1.15,2013-04-25 02:43:00,
2013-04-24 21:45:00,43.3,41.1,30.06,NNE,23,0.0,0.0,92,0.00,,,0.65,Wunderground v.1.15,2013-04-25 02:45:00,
2013-04-24 21:46:00,43.2,41.0,30.06,NNE,23,0.0,0.0,92,0.00,,,0.65,Wunderground v.1.15,2013-04-25 02:46:00,
2013-04-24 21:48:00,43.2,41.0,30.06,NNE,23,0.0,0.0,92,0.00,,,0.65,Wunderground v.1.15,2013-04-25 02:48:00,
2013-04-24 21:50:00,43.2,41.0,30.06,NNE,22,0.0,0.0,92,0.00,,,0.65,Wunderground v.1.15,2013-04-25 02:50:00,
2013-04-24 21:51:00,43.1,40.9,30.06,NNE,23,0.0,0.0,92,0.00,,,0.65,Wunderground v.1.15,2013-04-25 02:51:00,
2013-04-24 21:53:00,43.1,40.9,30.06,NNE,23,0.0,0.0,92,0.00,,,0.65,Wunderground v.1.15,2013-04-25 02:53:00,
2013-04-24 21:54:00,43.1,40.9,30.06,NNE,23,0.0,0.0,92,0.00,,,0.65,Wunderground v.1.15,2013-04-25 02:54:00,
2013-04-24 21:55:00,43.0,40.8,30.07,NNE,23,0.0,0.0,92,0.00,,,0.65,Wunderground v.1.15,2013-04-25 02:55:00,
2013-04-24 21:56:00,43.0,40.8,30.07,NNE,22,0.0,0.0,92,0.00,,,0.65,Wunderground v.1.15,2013-04-25 02:56:00,
2013-04-24 21:57:00,43.0,40.8,30.06,NNE,23,0.0,0.0,92,0.00,,,0.65,Wunderground v.1.15,2013-04-25 02:57:00,
2013-04-24 21:59:00,42.9,40.7,30.07,NNE,22,0.0,0.0,92,0.00,,,0.65,Wunderground v.1.15,2013-04-25 02:59:00,
2013-04-24 22:00:00,42.9,40.7,30.07,NNE,22,0.0,0.0,92,0.00,,,0.65,Wunderground v.1.15,2013-04-25 03:00:00,
2013-04-24 22:01:00,42.8,40.6,30.07,NNE,23,0.0,0.0,92,0.00,,,0.65,Wunderground v.1.15,2013-04-25 03:01:00,
2013-04-24 22:02:00,42.8,40.6,30.07,NNE,23,0.0,0.0,92,0.00,,,0.65,Wunderground v.1.15,2013-04-25 03:02:00,
2013-04-24 22:04:00,42.7,40.5,30.07,NNE,23,0.0,0.0,92,0.00,,,0.65,Wunderground v.1.15,2013-04-25 03:04:00,
2013-04-24 22:05:00,42.7,40.5,30.07,NNE,22,0.0,0.0,92,0.00,,,0.65,Wunderground v.1.15,2013-04-25 03:05:00,
2013-04-24 22:07:00,42.6,40.4,30.07,NNE,22,0.0,0.0,92,0.00,,,0.65,Wunderground v.1.15,2013-04-25 03:07:00,
2013-04-24 22:10:00,42.5,40.3,30.07,NNE,23,0.0,0.0,92,0.00,,,0.65,Wunderground v.1.15,2013-04-25 03:10:00,
2013-04-24 22:12:00,42.5,40.6,30.07,NNE,22,0.0,0.0,93,0.00,,,0.65,Wunderground v.1.15,2013-04-25 03:12:00,
2013-04-24 22:13:00,42.4,40.5,30.07,NNE,22,0.0,0.0,93,0.00,,,0.65,Wunderground v.1.15,2013-04-25 03:13:00,
2013-04-24 22:15:00,42.4,40.5,30.07,NNE,22,0.0,0.0,93,0.00,,,0.65,Wunderground v.1.15,2013-04-25 03:15:00,
2013-04-24 22:16:00,42.3,40.4,30.07,NNE,22,0.0,0.0,93,0.00,,,0.65,Wunderground v.1.15,2013-04-25 03:16:00,
2013-04-24 22:17:00,42.2,40.3,30.07,NNE,22,0.0,0.0,93,0.00,,,0.65,Wunderground v.1.15,2013-04-25 03:17:00,
2013-04-24 22:18:00,42.2,40.3,30.07,NNE,23,0.0,0.0,93,0.00,,,0.65,Wunderground v.1.15,2013-04-25 03:18:00,
2013-04-24 22:20:00,42.2,40.3,30.07,NNE,23,0.0,0.0,93,0.00,,,0.65,Wunderground v.1.15,2013-04-25 03:20:00,
2013-04-24 22:21:00,42.1,40.2,30.07,NNE,23,0.0,0.0,93,0.00,,,0.65,Wunderground v.1.15,2013-04-25 03:21:00,
2013-04-24 22:22:00,42.1,40.2,30.07,NNE,22,0.0,0.0,93,0.00,,,0.65,Wunderground v.1.15,2013-04-25 03:22:00,
2013-04-24 22:23:00,42.0,40.1,30.07,NNE,23,0.0,0.0,93,0.00,,,0.65,Wunderground v.1.15,2013-04-25 03:23:00,
2013-04-24 22:25:00,42.0,40.1,30.07,NNE,23,0.0,0.0,93,0.00,,,0.65,Wunderground v.1.15,2013-04-25 03:25:00,
2013-04-24 22:26:00,42.0,40.1,30.07,NNE,23,0.0,0.0,93,0.00,,,0.65,Wunderground v.1.15,2013-04-25 03:26:00,
2013-04-24 22:28:00,41.9,40.0,30.07,NNE,22,0.0,0.0,93,0.00,,,0.65,Wunderground v.1.15,2013-04-25 03:28:00,
2013-04-24 22:29:00,41.9,40.0,30.07,NNE,23,0.0,0.0,93,0.00,,,0.65,Wunderground v.1.15,2013-04-25 03:29:00,
2013-04-24 22:30:00,41.9,40.0,30.07,NNE,23,0.0,0.0,93,0.00,,,0.65,Wunderground v.1.15,2013-04-25 03:30:00,
2013-04-24 22:31:00,41.8,39.9,30.07,NNE,22,0.0,0.0,93,0.00,,,0.65,Wunderground v.1.15,2013-04-25 03:31:00,
2013-04-24 22:33:00,41.8,39.9,30.07,NNE,22,0.0,0.0,93,0.00,,,0.65,Wunderground v.1.15,2013-04-25 03:33:00,
2013-04-24 22:34:00,41.8,39.9,30.07,NNE,23,0.0,0.0,93,0.00,,,0.65,Wunderground v.1.15,2013-04-25 03:34:00,
2013-04-24 22:35:00,41.8,39.9,30.07,NNE,23,0.0,0.0,93,0.00,,,0.65,Wunderground v.1.15,2013-04-25 03:35:00,
2013-04-24 22:37:00,41.8,39.9,30.07,NNE,22,0.0,0.0,93,0.00,,,0.65,Wunderground v.1.15,2013-04-25 03:37:00,
2013-04-24 22:38:00,41.7,39.8,30.07,NNE,23,0.0,0.0,93,0.00,,,0.65,Wunderground v.1.15,2013-04-25 03:38:00,
2013-04-24 22:39:00,41.7,39.8,30.07,NNE,22,0.0,0.0,93,0.00,,,0.65,Wunderground v.1.15,2013-04-25 03:39:00,
2013-04-24 22:41:00,41.7,39.8,30.07,NNE,23,0.0,0.0,93,0.00,,,0.65,Wunderground v.1.15,2013-04-25 03:41:00,
2013-04-24 22:43:00,41.7,39.8,30.07,NNE,23,0.0,0.0,93,0.00,,,0.65,Wunderground v.1.15,2013-04-25 03:43:00,
2013-04-24 22:44:00,41.6,39.7,30.07,NNE,23,0.0,0.0,93,0.00,,,0.65,Wunderground v.1.15,2013-04-25 03:44:00,
2013-04-24 22:46:00,41.6,39.7,30.07,NNE,23,0.0,0.0,93,0.00,,,0.65,Wunderground v.1.15,2013-04-25 03:46:00,
2013-04-24 22:48:00,41.5,39.6,30.07,NNE,23,0.0,0.0,93,0.00,,,0.65,Wunderground v.1.15,2013-04-25 03:48:00,
2013-04-24 22:49:00,41.5,39.6,30.07,NNE,23,0.0,0.0,93,0.00,,,0.65,Wunderground v.1.15,2013-04-25 03:49:00,
2013-04-24 22:50:00,41.5,39.6,30.07,NNE,22,0.0,0.0,93,0.00,,,0.65,Wunderground v.1.15,2013-04-25 03:50:00,
2013-04-24 22:51:00,41.4,39.5,30.07,NNE,22,0.0,0.0,93,0.00,,,0.65,Wunderground v.1.15,2013-04-25 03:51:00,
2013-04-24 22:54:00,41.4,39.5,30.07,NNE,22,0.0,0.0,93,0.00,,,0.65,Wunderground v.1.15,2013-04-25 03:54:00,
2013-04-24 22:56:00,41.3,39.4,30.07,NNE,22,0.0,0.0,93,0.00,,,0.65,Wunderground v.1.15,2013-04-25 03:56:00,
2013-04-24 22:57:00,41.3,39.4,30.07,NNE,22,0.0,0.0,93,0.00,,,0.65,Wunderground v.1.15,2013-04-25 03:57:00,
2013-04-24 22:59:00,41.2,39.3,30.07,NNE,23,0.0,0.0,93,0.00,,,0.65,Wunderground v.1.15,2013-04-25 03:59:00,
2013-04-24 23:01:00,41.2,39.3,30.07,NNE,23,0.0,0.0,93,0.00,,,0.65,Wunderground v.1.15,2013-04-25 04:01:00,
2013-04-24 23:06:00,41.1,39.2,30.07,NNE,23,0.0,0.0,93,0.00,,,0.65,Wunderground v.1.15,2013-04-25 04:06:00,
2013-04-24 23:11:00,40.8,38.9,30.07,NNE,23,0.0,0.0,93,0.00,,,0.65,Wunderground v.1.15,2013-04-25 04:11:00,
2013-04-24 23:16:00,40.7,38.8,30.07,NNE,23,0.0,0.0,93,0.00,,,0.65,Wunderground v.1.15,2013-04-25 04:16:00,
2013-04-24 23:17:00,40.7,38.8,30.07,NNE,23,0.0,0.0,93,0.00,,,0.65,Wunderground v.1.15,2013-04-25 04:17:00,
2013-04-24 23:19:00,40.6,38.7,30.07,NNE,22,0.0,0.0,93,0.00,,,0.65,Wunderground v.1.15,2013-04-25 04:19:00,
2013-04-24 23:21:00,40.6,38.7,30.07,NNE,22,0.0,0.0,93,0.00,,,0.65,Wunderground v.1.15,2013-04-25 04:21:00,
2013-04-24 23:22:00,40.6,38.7,30.07,NNE,22,0.0,0.0,93,0.00,,,0.65,Wunderground v.1.15,2013-04-25 04:22:00,
2013-04-24 23:23:00,40.6,38.7,30.07,NNE,22,0.0,0.0,93,0.00,,,0.65,Wunderground v.1.15,2013-04-25 04:23:00,
2013-04-24 23:24:00,40.5,38.6,30.07,NNE,23,0.0,0.0,93,0.00,,,0.65,Wunderground v.1.15,2013-04-25 04:24:00,
2013-04-24 23:27:00,40.5,38.6,30.07,NNE,23,0.0,0.0,93,0.00,,,0.65,Wunderground v.1.15,2013-04-25 04:27:00,
2013-04-24 23:28:00,40.5,38.6,30.07,NNE,22,0.0,0.0,93,0.00,,,0.65,Wunderground v.1.15,2013-04-25 04:28:00,
2013-04-24 23:29:00,40.5,38.9,30.07,NNE,23,0.0,0.0,94,0.00,,,0.65,Wunderground v.1.15,2013-04-25 04:29:00,
2013-04-24 23:30:00,40.5,38.9,30.07,NNE,22,0.0,0.0,94,0.00,,,0.65,Wunderground v.1.15,2013-04-25 04:30:00,
2013-04-24 23:32:00,40.5,38.9,30.07,NNE,22,0.0,0.0,94,0.00,,,0.65,Wunderground v.1.15,2013-04-25 04:32:00,
2013-04-24 23:33:00,40.5,38.9,30.07,NNE,22,0.0,0.0,94,0.00,,,0.65,Wunderground v.1.15,2013-04-25 04:33:00,
2013-04-24 23:34:00,40.5,38.9,30.07,NNE,22,0.0,0.0,94,0.00,,,0.65,Wunderground v.1.15,2013-04-25 04:34:00,
2013-04-24 23:35:00,40.4,38.8,30.07,NNE,23,0.0,0.0,94,0.00,,,0.65,Wunderground v.1.15,2013-04-25 04:35:00,
2013-04-24 23:38:00,40.3,38.7,30.07,NNE,23,0.0,0.0,94,0.00,,,0.65,Wunderground v.1.15,2013-04-25 04:38:00,
2013-04-24 23:39:00,40.3,38.7,30.07,NNE,22,0.0,0.0,94,0.00,,,0.65,Wunderground v.1.15,2013-04-25 04:39:00,
2013-04-24 23:40:00,40.3,38.7,30.07,NNE,23,0.0,0.0,94,0.00,,,0.65,Wunderground v.1.15,2013-04-25 04:40:00,
2013-04-24 23:41:00,40.2,38.6,30.07,NNE,22,0.0,0.0,94,0.00,,,0.65,Wunderground v.1.15,2013-04-25 04:41:00,
2013-04-24 23:44:00,40.2,38.6,30.07,NNE,22,0.0,0.0,94,0.00,,,0.65,Wunderground v.1.15,2013-04-25 04:44:00,
2013-04-24 23:45:00,40.2,38.6,30.07,NNE,23,0.0,0.0,94,0.00,,,0.65,Wunderground v.1.15,2013-04-25 04:45:00,
2013-04-24 23:46:00,40.2,38.6,30.07,NNE,23,0.0,0.0,94,0.00,,,0.65,Wunderground v.1.15,2013-04-25 04:46:00,
2013-04-24 23:49:00,40.2,38.6,30.06,NNE,23,0.0,0.0,94,0.00,,,0.65,Wunderground v.1.15,2013-04-25 04:49:00,
2013-04-24 23:50:00,40.2,38.6,30.06,NNE,22,0.0,0.0,94,0.00,,,0.65,Wunderground v.1.15,2013-04-25 04:50:00,
2013-04-24 23:52:00,40.2,38.6,30.06,NNE,22,0.0,0.0,94,0.00,,,0.65,Wunderground v.1.15,2013-04-25 04:52:00,
2013-04-24 23:54:00,40.2,38.6,30.06,NNE,22,0.0,0.0,94,0.00,,,0.65,Wunderground v.1.15,2013-04-25 04:54:00,
2013-04-24 23:56:00,40.1,38.5,30.06,NNE,22,0.0,0.0,94,0.00,,,0.65,Wunderground v.1.15,2013-04-25 04:56:00,
2013-04-24 23:58:00,40.1,38.5,30.06,NNE,22,0.0,0.0,94,0.00,,,0.65,Wunderground v.1.15,2013-04-25 04:58:00,
2013-04-24 23:59:00,40.0,38.4,30.06,NNE,23,0.0,0.0,94,0.00,,,0.65,Wunderground v.1.15,2013-04-25 04:59:00,